﻿<?xml version="1.0" encoding="UTF-8" standalone="no" ?>
<gpx xmlns="http://www.topografix.com/GPX/1/1" creator="CompeGPS" version="1.1" xmlns:xsi="http://www.w3.org/2001/XMLSchema-instance" xsi:schemaLocation="http://www.topografix.com/GPX/1/1 http://www.topografix.com/GPX/1/1/gpx.xsd http://www.garmin.com/xmlschemas/GpxExtensions/v3 http://www.garmin.com/xmlschemas/GpxExtensionsv3.xsd http://www.garmin.com/xmlschemas/TrackPointExtension/v1 http://www.garmin.com/xmlschemas/TrackPointExtensionv1.xsd" xmlns:gpxtpx="http://www.garmin.com/xmlschemas/TrackPointExtension/v1">
  <metadata>
    <link href="http://www.compegps.com">
      <text>CompeGPS TEAM, SL</text>
    </link>
    <time>2019-12-01T15:38:19Z</time>
    <bounds maxlat="42.587635" maxlon="1.853539" minlat="42.559977" minlon="1.810100"/>
  </metadata>
  <trk>
    <name>tossa rodona</name>
    <userMyTwoNav></userMyTwoNav>
    <serialNumber></serialNumber>
    <trkseg>
      <trkpt lat="42.560023" lon="1.810519">
        <ele>1920.7</ele>
        <time>2019-11-30T08:52:22Z</time>
      </trkpt>
      <trkpt lat="42.560069" lon="1.810491">
        <ele>1920.6</ele>
        <time>2019-11-30T08:55:14Z</time>
      </trkpt>
      <trkpt lat="42.560105" lon="1.810492">
        <ele>1924.2</ele>
        <time>2019-11-30T08:57:16Z</time>
      </trkpt>
      <trkpt lat="42.560187" lon="1.810580">
        <ele>1924.7</ele>
        <time>2019-11-30T08:57:45Z</time>
      </trkpt>
      <trkpt lat="42.560319" lon="1.810662">
        <ele>1925.2</ele>
        <time>2019-11-30T08:58:33Z</time>
      </trkpt>
      <trkpt lat="42.560438" lon="1.810781">
        <ele>1926.4</ele>
        <time>2019-11-30T08:58:45Z</time>
      </trkpt>
      <trkpt lat="42.560556" lon="1.810843">
        <ele>1927.0</ele>
        <time>2019-11-30T08:58:57Z</time>
      </trkpt>
      <trkpt lat="42.560733" lon="1.810913">
        <ele>1927.7</ele>
        <time>2019-11-30T08:59:41Z</time>
      </trkpt>
      <trkpt lat="42.560971" lon="1.811098">
        <ele>1929.1</ele>
        <time>2019-11-30T08:59:52Z</time>
      </trkpt>
      <trkpt lat="42.561171" lon="1.811288">
        <ele>1930.1</ele>
        <time>2019-11-30T09:00:04Z</time>
      </trkpt>
      <trkpt lat="42.561318" lon="1.811502">
        <ele>1931.3</ele>
        <time>2019-11-30T09:01:08Z</time>
      </trkpt>
      <trkpt lat="42.561504" lon="1.811638">
        <ele>1931.5</ele>
        <time>2019-11-30T09:01:21Z</time>
      </trkpt>
      <trkpt lat="42.561654" lon="1.811783">
        <ele>1932.7</ele>
        <time>2019-11-30T09:02:20Z</time>
      </trkpt>
      <trkpt lat="42.561841" lon="1.811881">
        <ele>1934.9</ele>
        <time>2019-11-30T09:03:15Z</time>
      </trkpt>
      <trkpt lat="42.561998" lon="1.812022">
        <ele>1937.7</ele>
        <time>2019-11-30T09:03:31Z</time>
      </trkpt>
      <trkpt lat="42.562206" lon="1.812206">
        <ele>1941.1</ele>
        <time>2019-11-30T09:03:47Z</time>
      </trkpt>
      <trkpt lat="42.562335" lon="1.812527">
        <ele>1945.7</ele>
        <time>2019-11-30T09:04:47Z</time>
      </trkpt>
      <trkpt lat="42.562496" lon="1.812726">
        <ele>1948.1</ele>
        <time>2019-11-30T09:05:02Z</time>
      </trkpt>
      <trkpt lat="42.562646" lon="1.813013">
        <ele>1950.4</ele>
        <time>2019-11-30T09:05:16Z</time>
      </trkpt>
      <trkpt lat="42.562750" lon="1.813280">
        <ele>1952.9</ele>
        <time>2019-11-30T09:06:13Z</time>
      </trkpt>
      <trkpt lat="42.562879" lon="1.813654">
        <ele>1958.7</ele>
        <time>2019-11-30T09:06:27Z</time>
      </trkpt>
      <trkpt lat="42.562979" lon="1.814009">
        <ele>1965.0</ele>
        <time>2019-11-30T09:06:42Z</time>
      </trkpt>
      <trkpt lat="42.563025" lon="1.814281">
        <ele>1969.4</ele>
        <time>2019-11-30T09:07:42Z</time>
      </trkpt>
      <trkpt lat="42.563154" lon="1.814539">
        <ele>1973.1</ele>
        <time>2019-11-30T09:07:57Z</time>
      </trkpt>
      <trkpt lat="42.563240" lon="1.814787">
        <ele>1976.4</ele>
        <time>2019-11-30T09:08:13Z</time>
      </trkpt>
      <trkpt lat="42.563369" lon="1.814991">
        <ele>1978.4</ele>
        <time>2019-11-30T09:09:22Z</time>
      </trkpt>
      <trkpt lat="42.563519" lon="1.815229">
        <ele>1981.3</ele>
        <time>2019-11-30T09:09:39Z</time>
      </trkpt>
      <trkpt lat="42.563698" lon="1.815438">
        <ele>1983.6</ele>
        <time>2019-11-30T09:09:54Z</time>
      </trkpt>
      <trkpt lat="42.563845" lon="1.815642">
        <ele>1986.3</ele>
        <time>2019-11-30T09:12:23Z</time>
      </trkpt>
      <trkpt lat="42.564031" lon="1.815812">
        <ele>1987.9</ele>
        <time>2019-11-30T09:14:45Z</time>
      </trkpt>
      <trkpt lat="42.564153" lon="1.816186">
        <ele>1994.7</ele>
        <time>2019-11-30T09:15:00Z</time>
      </trkpt>
      <trkpt lat="42.564264" lon="1.816493">
        <ele>2000.0</ele>
        <time>2019-11-30T09:15:38Z</time>
      </trkpt>
      <trkpt lat="42.564425" lon="1.816912">
        <ele>2007.7</ele>
        <time>2019-11-30T09:18:51Z</time>
      </trkpt>
      <trkpt lat="42.564520" lon="1.817345">
        <ele>2017.1</ele>
        <time>2019-11-30T09:19:10Z</time>
      </trkpt>
      <trkpt lat="42.564599" lon="1.817679">
        <ele>2024.7</ele>
        <time>2019-11-30T09:19:34Z</time>
      </trkpt>
      <trkpt lat="42.564800" lon="1.817899">
        <ele>2028.9</ele>
        <time>2019-11-30T09:20:05Z</time>
      </trkpt>
      <trkpt lat="42.564878" lon="1.818112">
        <ele>2034.6</ele>
        <time>2019-11-30T09:20:38Z</time>
      </trkpt>
      <trkpt lat="42.565046" lon="1.818347">
        <ele>2039.1</ele>
        <time>2019-11-30T09:26:10Z</time>
      </trkpt>
      <trkpt lat="42.565201" lon="1.818599">
        <ele>2041.8</ele>
        <time>2019-11-30T09:28:06Z</time>
      </trkpt>
      <trkpt lat="42.565365" lon="1.818822">
        <ele>2043.8</ele>
        <time>2019-11-30T09:28:40Z</time>
      </trkpt>
      <trkpt lat="42.565401" lon="1.819133">
        <ele>2051.8</ele>
        <time>2019-11-30T09:29:14Z</time>
      </trkpt>
      <trkpt lat="42.565430" lon="1.819507">
        <ele>2060.1</ele>
        <time>2019-11-30T09:29:47Z</time>
      </trkpt>
      <trkpt lat="42.565437" lon="1.819735">
        <ele>2065.1</ele>
        <time>2019-11-30T09:30:22Z</time>
      </trkpt>
      <trkpt lat="42.565279" lon="1.819910">
        <ele>2073.1</ele>
        <time>2019-11-30T09:31:20Z</time>
      </trkpt>
      <trkpt lat="42.565186" lon="1.820177">
        <ele>2081.4</ele>
        <time>2019-11-30T09:32:03Z</time>
      </trkpt>
      <trkpt lat="42.565165" lon="1.820493">
        <ele>2089.5</ele>
        <time>2019-11-30T09:36:07Z</time>
      </trkpt>
      <trkpt lat="42.565208" lon="1.820701">
        <ele>2093.5</ele>
        <time>2019-11-30T09:36:52Z</time>
      </trkpt>
      <trkpt lat="42.565247" lon="1.820978">
        <ele>2100.1</ele>
        <time>2019-11-30T09:38:51Z</time>
      </trkpt>
      <trkpt lat="42.565161" lon="1.821197">
        <ele>2108.9</ele>
        <time>2019-11-30T09:39:41Z</time>
      </trkpt>
      <trkpt lat="42.565029" lon="1.821386">
        <ele>2117.4</ele>
        <time>2019-11-30T09:40:13Z</time>
      </trkpt>
      <trkpt lat="42.564963" lon="1.821511">
        <ele>2140.2</ele>
        <time>2019-11-30T09:43:57Z</time>
      </trkpt>
      <trkpt lat="42.564930" lon="1.821633">
        <ele>2128.4</ele>
        <time>2019-11-30T09:44:29Z</time>
      </trkpt>
      <trkpt lat="42.564910" lon="1.821730">
        <ele>2133.2</ele>
        <time>2019-11-30T09:45:00Z</time>
      </trkpt>
      <trkpt lat="42.564784" lon="1.821864">
        <ele>2143.8</ele>
        <time>2019-11-30T09:47:34Z</time>
      </trkpt>
      <trkpt lat="42.564623" lon="1.821948">
        <ele>2153.7</ele>
        <time>2019-11-30T09:50:11Z</time>
      </trkpt>
      <trkpt lat="42.564519" lon="1.822040">
        <ele>2162.1</ele>
        <time>2019-11-30T09:50:49Z</time>
      </trkpt>
      <trkpt lat="42.564431" lon="1.822135">
        <ele>2170.5</ele>
        <time>2019-11-30T09:51:57Z</time>
      </trkpt>
      <trkpt lat="42.564407" lon="1.822224">
        <ele>2181.0</ele>
        <time>2019-11-30T09:52:42Z</time>
      </trkpt>
      <trkpt lat="42.564335" lon="1.822295">
        <ele>2186.0</ele>
        <time>2019-11-30T09:53:17Z</time>
      </trkpt>
      <trkpt lat="42.564363" lon="1.822416">
        <ele>2189.5</ele>
        <time>2019-11-30T09:53:48Z</time>
      </trkpt>
      <trkpt lat="42.564420" lon="1.822509">
        <ele>2192.2</ele>
        <time>2019-11-30T09:54:12Z</time>
      </trkpt>
      <trkpt lat="42.564469" lon="1.822568">
        <ele>2198.1</ele>
        <time>2019-11-30T10:04:29Z</time>
      </trkpt>
      <trkpt lat="42.564563" lon="1.822637">
        <ele>2201.7</ele>
        <time>2019-11-30T10:04:46Z</time>
      </trkpt>
      <trkpt lat="42.564636" lon="1.822711">
        <ele>2205.9</ele>
        <time>2019-11-30T10:05:08Z</time>
      </trkpt>
      <trkpt lat="42.564653" lon="1.822827">
        <ele>2211.0</ele>
        <time>2019-11-30T10:05:36Z</time>
      </trkpt>
      <trkpt lat="42.564692" lon="1.822942">
        <ele>2215.3</ele>
        <time>2019-11-30T10:06:00Z</time>
      </trkpt>
      <trkpt lat="42.564725" lon="1.823041">
        <ele>2221.3</ele>
        <time>2019-11-30T10:06:38Z</time>
      </trkpt>
      <trkpt lat="42.564789" lon="1.823128">
        <ele>2225.8</ele>
        <time>2019-11-30T10:07:01Z</time>
      </trkpt>
      <trkpt lat="42.564797" lon="1.823274">
        <ele>2236.1</ele>
        <time>2019-11-30T10:08:08Z</time>
      </trkpt>
      <trkpt lat="42.564794" lon="1.823379">
        <ele>2242.2</ele>
        <time>2019-11-30T10:08:51Z</time>
      </trkpt>
      <trkpt lat="42.564785" lon="1.823509">
        <ele>2246.3</ele>
        <time>2019-11-30T10:09:15Z</time>
      </trkpt>
      <trkpt lat="42.564751" lon="1.823622">
        <ele>2250.0</ele>
        <time>2019-11-30T10:09:39Z</time>
      </trkpt>
      <trkpt lat="42.564725" lon="1.823753">
        <ele>2253.8</ele>
        <time>2019-11-30T10:10:13Z</time>
      </trkpt>
      <trkpt lat="42.564678" lon="1.823829">
        <ele>2258.3</ele>
        <time>2019-11-30T10:10:40Z</time>
      </trkpt>
      <trkpt lat="42.564655" lon="1.823945">
        <ele>2264.8</ele>
        <time>2019-11-30T10:11:12Z</time>
      </trkpt>
      <trkpt lat="42.564648" lon="1.824076">
        <ele>2269.1</ele>
        <time>2019-11-30T10:11:37Z</time>
      </trkpt>
      <trkpt lat="42.564617" lon="1.824200">
        <ele>2271.9</ele>
        <time>2019-11-30T10:11:57Z</time>
      </trkpt>
      <trkpt lat="42.564576" lon="1.824304">
        <ele>2276.6</ele>
        <time>2019-11-30T10:12:20Z</time>
      </trkpt>
      <trkpt lat="42.564547" lon="1.824426">
        <ele>2280.1</ele>
        <time>2019-11-30T10:12:42Z</time>
      </trkpt>
      <trkpt lat="42.564532" lon="1.824551">
        <ele>2282.8</ele>
        <time>2019-11-30T10:13:01Z</time>
      </trkpt>
      <trkpt lat="42.564466" lon="1.824640">
        <ele>2288.3</ele>
        <time>2019-11-30T10:13:23Z</time>
      </trkpt>
      <trkpt lat="42.564396" lon="1.824708">
        <ele>2291.8</ele>
        <time>2019-11-30T10:13:42Z</time>
      </trkpt>
      <trkpt lat="42.564372" lon="1.824804">
        <ele>2294.3</ele>
        <time>2019-11-30T10:13:59Z</time>
      </trkpt>
      <trkpt lat="42.564357" lon="1.824927">
        <ele>2297.8</ele>
        <time>2019-11-30T10:14:22Z</time>
      </trkpt>
      <trkpt lat="42.564348" lon="1.825054">
        <ele>2301.1</ele>
        <time>2019-11-30T10:14:45Z</time>
      </trkpt>
      <trkpt lat="42.564310" lon="1.825166">
        <ele>2304.5</ele>
        <time>2019-11-30T10:15:07Z</time>
      </trkpt>
      <trkpt lat="42.564297" lon="1.825281">
        <ele>2309.2</ele>
        <time>2019-11-30T10:15:32Z</time>
      </trkpt>
      <trkpt lat="42.564276" lon="1.825400">
        <ele>2311.7</ele>
        <time>2019-11-30T10:15:51Z</time>
      </trkpt>
      <trkpt lat="42.564273" lon="1.825508">
        <ele>2315.1</ele>
        <time>2019-11-30T10:16:12Z</time>
      </trkpt>
      <trkpt lat="42.564279" lon="1.825646">
        <ele>2319.4</ele>
        <time>2019-11-30T10:16:34Z</time>
      </trkpt>
      <trkpt lat="42.564248" lon="1.825758">
        <ele>2322.2</ele>
        <time>2019-11-30T10:16:59Z</time>
      </trkpt>
      <trkpt lat="42.564200" lon="1.825861">
        <ele>2327.1</ele>
        <time>2019-11-30T10:17:21Z</time>
      </trkpt>
      <trkpt lat="42.564124" lon="1.825903">
        <ele>2330.8</ele>
        <time>2019-11-30T10:17:38Z</time>
      </trkpt>
      <trkpt lat="42.564142" lon="1.826007">
        <ele>2334.4</ele>
        <time>2019-11-30T10:17:56Z</time>
      </trkpt>
      <trkpt lat="42.564159" lon="1.826129">
        <ele>2338.9</ele>
        <time>2019-11-30T10:18:19Z</time>
      </trkpt>
      <trkpt lat="42.564201" lon="1.826238">
        <ele>2342.8</ele>
        <time>2019-11-30T10:18:39Z</time>
      </trkpt>
      <trkpt lat="42.564239" lon="1.826344">
        <ele>2346.6</ele>
        <time>2019-11-30T10:18:59Z</time>
      </trkpt>
      <trkpt lat="42.564276" lon="1.826466">
        <ele>2349.3</ele>
        <time>2019-11-30T10:19:20Z</time>
      </trkpt>
      <trkpt lat="42.564249" lon="1.826566">
        <ele>2353.9</ele>
        <time>2019-11-30T10:19:42Z</time>
      </trkpt>
      <trkpt lat="42.564246" lon="1.826637">
        <ele>2357.5</ele>
        <time>2019-11-30T10:20:05Z</time>
      </trkpt>
      <trkpt lat="42.564242" lon="1.826752">
        <ele>2360.5</ele>
        <time>2019-11-30T10:20:26Z</time>
      </trkpt>
      <trkpt lat="42.564263" lon="1.826867">
        <ele>2365.7</ele>
        <time>2019-11-30T10:20:47Z</time>
      </trkpt>
      <trkpt lat="42.564244" lon="1.826980">
        <ele>2369.2</ele>
        <time>2019-11-30T10:21:06Z</time>
      </trkpt>
      <trkpt lat="42.564231" lon="1.827081">
        <ele>2373.0</ele>
        <time>2019-11-30T10:21:23Z</time>
      </trkpt>
      <trkpt lat="42.564200" lon="1.827192">
        <ele>2375.8</ele>
        <time>2019-11-30T10:21:40Z</time>
      </trkpt>
      <trkpt lat="42.564175" lon="1.827301">
        <ele>2378.6</ele>
        <time>2019-11-30T10:21:57Z</time>
      </trkpt>
      <trkpt lat="42.564148" lon="1.827423">
        <ele>2381.1</ele>
        <time>2019-11-30T10:22:13Z</time>
      </trkpt>
      <trkpt lat="42.564113" lon="1.827534">
        <ele>2385.5</ele>
        <time>2019-11-30T10:22:30Z</time>
      </trkpt>
      <trkpt lat="42.564085" lon="1.827654">
        <ele>2388.0</ele>
        <time>2019-11-30T10:22:45Z</time>
      </trkpt>
      <trkpt lat="42.564034" lon="1.827749">
        <ele>2389.7</ele>
        <time>2019-11-30T10:22:59Z</time>
      </trkpt>
      <trkpt lat="42.563988" lon="1.827842">
        <ele>2394.1</ele>
        <time>2019-11-30T10:23:15Z</time>
      </trkpt>
      <trkpt lat="42.563974" lon="1.827963">
        <ele>2396.7</ele>
        <time>2019-11-30T10:23:27Z</time>
      </trkpt>
      <trkpt lat="42.563958" lon="1.828087">
        <ele>2398.2</ele>
        <time>2019-11-30T10:23:40Z</time>
      </trkpt>
      <trkpt lat="42.563959" lon="1.828183">
        <ele>2399.3</ele>
        <time>2019-11-30T10:27:26Z</time>
      </trkpt>
      <trkpt lat="42.563919" lon="1.828300">
        <ele>2401.0</ele>
        <time>2019-11-30T10:27:38Z</time>
      </trkpt>
      <trkpt lat="42.563932" lon="1.828429">
        <ele>2402.6</ele>
        <time>2019-11-30T10:27:50Z</time>
      </trkpt>
      <trkpt lat="42.563952" lon="1.828555">
        <ele>2402.6</ele>
        <time>2019-11-30T10:28:01Z</time>
      </trkpt>
      <trkpt lat="42.563974" lon="1.828690">
        <ele>2404.2</ele>
        <time>2019-11-30T10:28:13Z</time>
      </trkpt>
      <trkpt lat="42.563984" lon="1.828816">
        <ele>2406.0</ele>
        <time>2019-11-30T10:28:24Z</time>
      </trkpt>
      <trkpt lat="42.563988" lon="1.828936">
        <ele>2406.8</ele>
        <time>2019-11-30T10:28:35Z</time>
      </trkpt>
      <trkpt lat="42.564009" lon="1.829060">
        <ele>2408.5</ele>
        <time>2019-11-30T10:28:47Z</time>
      </trkpt>
      <trkpt lat="42.564062" lon="1.829161">
        <ele>2409.3</ele>
        <time>2019-11-30T10:28:57Z</time>
      </trkpt>
      <trkpt lat="42.564108" lon="1.829269">
        <ele>2410.2</ele>
        <time>2019-11-30T10:29:08Z</time>
      </trkpt>
      <trkpt lat="42.564160" lon="1.829371">
        <ele>2411.8</ele>
        <time>2019-11-30T10:29:20Z</time>
      </trkpt>
      <trkpt lat="42.564206" lon="1.829483">
        <ele>2412.7</ele>
        <time>2019-11-30T10:29:32Z</time>
      </trkpt>
      <trkpt lat="42.564240" lon="1.829593">
        <ele>2414.3</ele>
        <time>2019-11-30T10:29:44Z</time>
      </trkpt>
      <trkpt lat="42.564275" lon="1.829715">
        <ele>2417.8</ele>
        <time>2019-11-30T10:29:57Z</time>
      </trkpt>
      <trkpt lat="42.564329" lon="1.829821">
        <ele>2417.8</ele>
        <time>2019-11-30T10:30:07Z</time>
      </trkpt>
      <trkpt lat="42.564388" lon="1.829930">
        <ele>2417.7</ele>
        <time>2019-11-30T10:30:17Z</time>
      </trkpt>
      <trkpt lat="42.564437" lon="1.830037">
        <ele>2419.8</ele>
        <time>2019-11-30T10:30:27Z</time>
      </trkpt>
      <trkpt lat="42.564496" lon="1.830144">
        <ele>2419.9</ele>
        <time>2019-11-30T10:30:38Z</time>
      </trkpt>
      <trkpt lat="42.564542" lon="1.830258">
        <ele>2420.6</ele>
        <time>2019-11-30T10:30:49Z</time>
      </trkpt>
      <trkpt lat="42.564595" lon="1.830358">
        <ele>2420.6</ele>
        <time>2019-11-30T10:30:59Z</time>
      </trkpt>
      <trkpt lat="42.564636" lon="1.830470">
        <ele>2422.5</ele>
        <time>2019-11-30T10:31:12Z</time>
      </trkpt>
      <trkpt lat="42.564687" lon="1.830586">
        <ele>2424.9</ele>
        <time>2019-11-30T10:31:25Z</time>
      </trkpt>
      <trkpt lat="42.564741" lon="1.830680">
        <ele>2427.6</ele>
        <time>2019-11-30T10:31:40Z</time>
      </trkpt>
      <trkpt lat="42.564787" lon="1.830788">
        <ele>2429.5</ele>
        <time>2019-11-30T10:31:54Z</time>
      </trkpt>
      <trkpt lat="42.564839" lon="1.830881">
        <ele>2432.3</ele>
        <time>2019-11-30T10:32:09Z</time>
      </trkpt>
      <trkpt lat="42.564905" lon="1.830963">
        <ele>2435.4</ele>
        <time>2019-11-30T10:32:25Z</time>
      </trkpt>
      <trkpt lat="42.564952" lon="1.831083">
        <ele>2439.3</ele>
        <time>2019-11-30T10:32:44Z</time>
      </trkpt>
      <trkpt lat="42.565002" lon="1.831196">
        <ele>2441.1</ele>
        <time>2019-11-30T10:33:01Z</time>
      </trkpt>
      <trkpt lat="42.565044" lon="1.831299">
        <ele>2444.9</ele>
        <time>2019-11-30T10:33:21Z</time>
      </trkpt>
      <trkpt lat="42.565078" lon="1.831409">
        <ele>2449.3</ele>
        <time>2019-11-30T10:33:42Z</time>
      </trkpt>
      <trkpt lat="42.565106" lon="1.831517">
        <ele>2453.1</ele>
        <time>2019-11-30T10:34:00Z</time>
      </trkpt>
      <trkpt lat="42.565167" lon="1.831608">
        <ele>2456.4</ele>
        <time>2019-11-30T10:34:20Z</time>
      </trkpt>
      <trkpt lat="42.565229" lon="1.831684">
        <ele>2460.9</ele>
        <time>2019-11-30T10:34:42Z</time>
      </trkpt>
      <trkpt lat="42.565301" lon="1.831741">
        <ele>2464.4</ele>
        <time>2019-11-30T10:35:03Z</time>
      </trkpt>
      <trkpt lat="42.565392" lon="1.831782">
        <ele>2467.1</ele>
        <time>2019-11-30T10:35:23Z</time>
      </trkpt>
      <trkpt lat="42.565484" lon="1.831822">
        <ele>2469.7</ele>
        <time>2019-11-30T10:35:38Z</time>
      </trkpt>
      <trkpt lat="42.565545" lon="1.831917">
        <ele>2470.4</ele>
        <time>2019-11-30T10:35:53Z</time>
      </trkpt>
      <trkpt lat="42.565588" lon="1.832017">
        <ele>2473.8</ele>
        <time>2019-11-30T10:36:10Z</time>
      </trkpt>
      <trkpt lat="42.565618" lon="1.832130">
        <ele>2475.6</ele>
        <time>2019-11-30T10:36:27Z</time>
      </trkpt>
      <trkpt lat="42.565641" lon="1.832244">
        <ele>2480.1</ele>
        <time>2019-11-30T10:36:45Z</time>
      </trkpt>
      <trkpt lat="42.565663" lon="1.832366">
        <ele>2482.8</ele>
        <time>2019-11-30T10:37:06Z</time>
      </trkpt>
      <trkpt lat="42.565683" lon="1.832477">
        <ele>2487.7</ele>
        <time>2019-11-30T10:37:27Z</time>
      </trkpt>
      <trkpt lat="42.565728" lon="1.832581">
        <ele>2490.6</ele>
        <time>2019-11-30T10:37:48Z</time>
      </trkpt>
      <trkpt lat="42.565797" lon="1.832646">
        <ele>2494.0</ele>
        <time>2019-11-30T10:38:13Z</time>
      </trkpt>
      <trkpt lat="42.565805" lon="1.832716">
        <ele>2498.4</ele>
        <time>2019-11-30T10:38:38Z</time>
      </trkpt>
      <trkpt lat="42.565833" lon="1.832819">
        <ele>2507.9</ele>
        <time>2019-11-30T10:39:33Z</time>
      </trkpt>
      <trkpt lat="42.565907" lon="1.832877">
        <ele>2511.7</ele>
        <time>2019-11-30T10:39:59Z</time>
      </trkpt>
      <trkpt lat="42.565923" lon="1.832951">
        <ele>2516.1</ele>
        <time>2019-11-30T10:40:28Z</time>
      </trkpt>
      <trkpt lat="42.566022" lon="1.833157">
        <ele>2525.3</ele>
        <time>2019-11-30T10:41:24Z</time>
      </trkpt>
      <trkpt lat="42.566064" lon="1.833256">
        <ele>2528.6</ele>
        <time>2019-11-30T10:41:43Z</time>
      </trkpt>
      <trkpt lat="42.566111" lon="1.833338">
        <ele>2531.2</ele>
        <time>2019-11-30T10:42:04Z</time>
      </trkpt>
      <trkpt lat="42.566135" lon="1.833446">
        <ele>2532.8</ele>
        <time>2019-11-30T10:42:25Z</time>
      </trkpt>
      <trkpt lat="42.566119" lon="1.833562">
        <ele>2534.6</ele>
        <time>2019-11-30T10:42:42Z</time>
      </trkpt>
      <trkpt lat="42.566144" lon="1.833660">
        <ele>2534.9</ele>
        <time>2019-11-30T10:47:03Z</time>
      </trkpt>
      <trkpt lat="42.566156" lon="1.833772">
        <ele>2534.9</ele>
        <time>2019-11-30T10:47:17Z</time>
      </trkpt>
      <trkpt lat="42.566159" lon="1.833889">
        <ele>2530.6</ele>
        <time>2019-11-30T10:47:30Z</time>
      </trkpt>
      <trkpt lat="42.566172" lon="1.834007">
        <ele>2528.0</ele>
        <time>2019-11-30T10:47:39Z</time>
      </trkpt>
      <trkpt lat="42.566224" lon="1.834117">
        <ele>2527.1</ele>
        <time>2019-11-30T10:47:49Z</time>
      </trkpt>
      <trkpt lat="42.566276" lon="1.834231">
        <ele>2527.1</ele>
        <time>2019-11-30T10:47:59Z</time>
      </trkpt>
      <trkpt lat="42.566335" lon="1.834347">
        <ele>2527.1</ele>
        <time>2019-11-30T10:48:10Z</time>
      </trkpt>
      <trkpt lat="42.566380" lon="1.834451">
        <ele>2527.1</ele>
        <time>2019-11-30T10:48:22Z</time>
      </trkpt>
      <trkpt lat="42.566426" lon="1.834562">
        <ele>2527.2</ele>
        <time>2019-11-30T10:48:34Z</time>
      </trkpt>
      <trkpt lat="42.566489" lon="1.834642">
        <ele>2530.4</ele>
        <time>2019-11-30T10:48:47Z</time>
      </trkpt>
      <trkpt lat="42.566509" lon="1.834771">
        <ele>2532.2</ele>
        <time>2019-11-30T10:49:04Z</time>
      </trkpt>
      <trkpt lat="42.566572" lon="1.834867">
        <ele>2533.4</ele>
        <time>2019-11-30T10:49:17Z</time>
      </trkpt>
      <trkpt lat="42.566613" lon="1.834976">
        <ele>2535.1</ele>
        <time>2019-11-30T10:49:31Z</time>
      </trkpt>
      <trkpt lat="42.566646" lon="1.835097">
        <ele>2537.6</ele>
        <time>2019-11-30T10:49:47Z</time>
      </trkpt>
      <trkpt lat="42.566679" lon="1.835204">
        <ele>2540.1</ele>
        <time>2019-11-30T10:50:06Z</time>
      </trkpt>
      <trkpt lat="42.566691" lon="1.835332">
        <ele>2542.4</ele>
        <time>2019-11-30T10:50:26Z</time>
      </trkpt>
      <trkpt lat="42.566680" lon="1.835407">
        <ele>2545.8</ele>
        <time>2019-11-30T10:50:52Z</time>
      </trkpt>
      <trkpt lat="42.566704" lon="1.835484">
        <ele>2552.0</ele>
        <time>2019-11-30T10:51:26Z</time>
      </trkpt>
      <trkpt lat="42.566696" lon="1.835626">
        <ele>2554.6</ele>
        <time>2019-11-30T10:51:50Z</time>
      </trkpt>
      <trkpt lat="42.566777" lon="1.835754">
        <ele>2557.9</ele>
        <time>2019-11-30T10:52:11Z</time>
      </trkpt>
      <trkpt lat="42.566912" lon="1.835796">
        <ele>2569.0</ele>
        <time>2019-11-30T10:53:24Z</time>
      </trkpt>
      <trkpt lat="42.566995" lon="1.835793">
        <ele>2572.5</ele>
        <time>2019-11-30T10:53:43Z</time>
      </trkpt>
      <trkpt lat="42.567071" lon="1.835854">
        <ele>2575.0</ele>
        <time>2019-11-30T10:53:58Z</time>
      </trkpt>
      <trkpt lat="42.567118" lon="1.835934">
        <ele>2574.9</ele>
        <time>2019-11-30T10:54:13Z</time>
      </trkpt>
      <trkpt lat="42.567190" lon="1.836025">
        <ele>2575.7</ele>
        <time>2019-11-30T10:54:27Z</time>
      </trkpt>
      <trkpt lat="42.567247" lon="1.836097">
        <ele>2575.7</ele>
        <time>2019-11-30T10:54:45Z</time>
      </trkpt>
      <trkpt lat="42.567323" lon="1.836146">
        <ele>2579.0</ele>
        <time>2019-11-30T10:55:07Z</time>
      </trkpt>
      <trkpt lat="42.567341" lon="1.836261">
        <ele>2583.7</ele>
        <time>2019-11-30T10:55:38Z</time>
      </trkpt>
      <trkpt lat="42.567388" lon="1.836336">
        <ele>2587.9</ele>
        <time>2019-11-30T10:56:07Z</time>
      </trkpt>
      <trkpt lat="42.567461" lon="1.836368">
        <ele>2595.1</ele>
        <time>2019-11-30T10:56:54Z</time>
      </trkpt>
      <trkpt lat="42.567490" lon="1.836473">
        <ele>2595.0</ele>
        <time>2019-11-30T10:57:18Z</time>
      </trkpt>
      <trkpt lat="42.567555" lon="1.836567">
        <ele>2594.9</ele>
        <time>2019-11-30T10:57:31Z</time>
      </trkpt>
      <trkpt lat="42.567607" lon="1.836675">
        <ele>2591.8</ele>
        <time>2019-11-30T10:57:42Z</time>
      </trkpt>
      <trkpt lat="42.567666" lon="1.836747">
        <ele>2594.1</ele>
        <time>2019-11-30T10:57:59Z</time>
      </trkpt>
      <trkpt lat="42.567727" lon="1.836850">
        <ele>2594.1</ele>
        <time>2019-11-30T10:58:12Z</time>
      </trkpt>
      <trkpt lat="42.567754" lon="1.836956">
        <ele>2594.0</ele>
        <time>2019-11-30T10:58:40Z</time>
      </trkpt>
      <trkpt lat="42.567816" lon="1.837035">
        <ele>2595.6</ele>
        <time>2019-11-30T10:59:17Z</time>
      </trkpt>
      <trkpt lat="42.567906" lon="1.837241">
        <ele>2599.0</ele>
        <time>2019-11-30T10:59:46Z</time>
      </trkpt>
      <trkpt lat="42.567921" lon="1.837369">
        <ele>2595.6</ele>
        <time>2019-11-30T10:59:58Z</time>
      </trkpt>
      <trkpt lat="42.567986" lon="1.837467">
        <ele>2592.9</ele>
        <time>2019-11-30T11:00:08Z</time>
      </trkpt>
      <trkpt lat="42.568034" lon="1.837572">
        <ele>2591.0</ele>
        <time>2019-11-30T11:00:17Z</time>
      </trkpt>
      <trkpt lat="42.568104" lon="1.837665">
        <ele>2591.1</ele>
        <time>2019-11-30T11:00:27Z</time>
      </trkpt>
      <trkpt lat="42.568168" lon="1.837755">
        <ele>2591.1</ele>
        <time>2019-11-30T11:00:36Z</time>
      </trkpt>
      <trkpt lat="42.568238" lon="1.837839">
        <ele>2590.3</ele>
        <time>2019-11-30T11:00:45Z</time>
      </trkpt>
      <trkpt lat="42.568307" lon="1.837937">
        <ele>2590.3</ele>
        <time>2019-11-30T11:00:55Z</time>
      </trkpt>
      <trkpt lat="42.568382" lon="1.838016">
        <ele>2594.4</ele>
        <time>2019-11-30T11:01:05Z</time>
      </trkpt>
      <trkpt lat="42.568435" lon="1.838118">
        <ele>2592.1</ele>
        <time>2019-11-30T11:01:15Z</time>
      </trkpt>
      <trkpt lat="42.568501" lon="1.838203">
        <ele>2589.8</ele>
        <time>2019-11-30T11:01:25Z</time>
      </trkpt>
      <trkpt lat="42.568543" lon="1.838315">
        <ele>2593.2</ele>
        <time>2019-11-30T11:01:36Z</time>
      </trkpt>
      <trkpt lat="42.568603" lon="1.838423">
        <ele>2593.2</ele>
        <time>2019-11-30T11:01:48Z</time>
      </trkpt>
      <trkpt lat="42.568657" lon="1.838528">
        <ele>2593.2</ele>
        <time>2019-11-30T11:01:57Z</time>
      </trkpt>
      <trkpt lat="42.568717" lon="1.838622">
        <ele>2593.2</ele>
        <time>2019-11-30T11:02:06Z</time>
      </trkpt>
      <trkpt lat="42.568784" lon="1.838717">
        <ele>2593.2</ele>
        <time>2019-11-30T11:02:16Z</time>
      </trkpt>
      <trkpt lat="42.568851" lon="1.838818">
        <ele>2594.1</ele>
        <time>2019-11-30T11:02:26Z</time>
      </trkpt>
      <trkpt lat="42.568884" lon="1.838932">
        <ele>2596.8</ele>
        <time>2019-11-30T11:02:37Z</time>
      </trkpt>
      <trkpt lat="42.568959" lon="1.839010">
        <ele>2599.1</ele>
        <time>2019-11-30T11:02:50Z</time>
      </trkpt>
      <trkpt lat="42.569028" lon="1.839100">
        <ele>2600.7</ele>
        <time>2019-11-30T11:03:03Z</time>
      </trkpt>
      <trkpt lat="42.569105" lon="1.839180">
        <ele>2601.5</ele>
        <time>2019-11-30T11:03:13Z</time>
      </trkpt>
      <trkpt lat="42.569162" lon="1.839284">
        <ele>2603.3</ele>
        <time>2019-11-30T11:03:24Z</time>
      </trkpt>
      <trkpt lat="42.569220" lon="1.839382">
        <ele>2605.9</ele>
        <time>2019-11-30T11:03:35Z</time>
      </trkpt>
      <trkpt lat="42.569293" lon="1.839468">
        <ele>2608.7</ele>
        <time>2019-11-30T11:03:50Z</time>
      </trkpt>
      <trkpt lat="42.569354" lon="1.839553">
        <ele>2611.3</ele>
        <time>2019-11-30T11:04:03Z</time>
      </trkpt>
      <trkpt lat="42.569433" lon="1.839584">
        <ele>2611.3</ele>
        <time>2019-11-30T11:04:14Z</time>
      </trkpt>
      <trkpt lat="42.569499" lon="1.839681">
        <ele>2613.0</ele>
        <time>2019-11-30T11:04:26Z</time>
      </trkpt>
      <trkpt lat="42.569573" lon="1.839771">
        <ele>2612.9</ele>
        <time>2019-11-30T11:04:36Z</time>
      </trkpt>
      <trkpt lat="42.569649" lon="1.839839">
        <ele>2612.9</ele>
        <time>2019-11-30T11:04:46Z</time>
      </trkpt>
      <trkpt lat="42.569723" lon="1.839915">
        <ele>2613.0</ele>
        <time>2019-11-30T11:04:56Z</time>
      </trkpt>
      <trkpt lat="42.569765" lon="1.840018">
        <ele>2612.5</ele>
        <time>2019-11-30T11:08:56Z</time>
      </trkpt>
      <trkpt lat="42.569851" lon="1.840050">
        <ele>2608.4</ele>
        <time>2019-11-30T11:09:05Z</time>
      </trkpt>
      <trkpt lat="42.569918" lon="1.840150">
        <ele>2604.9</ele>
        <time>2019-11-30T11:09:13Z</time>
      </trkpt>
      <trkpt lat="42.569995" lon="1.840225">
        <ele>2601.0</ele>
        <time>2019-11-30T11:09:21Z</time>
      </trkpt>
      <trkpt lat="42.570081" lon="1.840287">
        <ele>2599.2</ele>
        <time>2019-11-30T11:09:29Z</time>
      </trkpt>
      <trkpt lat="42.570166" lon="1.840334">
        <ele>2596.5</ele>
        <time>2019-11-30T11:09:37Z</time>
      </trkpt>
      <trkpt lat="42.570249" lon="1.840391">
        <ele>2593.2</ele>
        <time>2019-11-30T11:09:45Z</time>
      </trkpt>
      <trkpt lat="42.570330" lon="1.840466">
        <ele>2590.2</ele>
        <time>2019-11-30T11:09:53Z</time>
      </trkpt>
      <trkpt lat="42.570427" lon="1.840513">
        <ele>2588.3</ele>
        <time>2019-11-30T11:10:01Z</time>
      </trkpt>
      <trkpt lat="42.570519" lon="1.840567">
        <ele>2586.4</ele>
        <time>2019-11-30T11:10:09Z</time>
      </trkpt>
      <trkpt lat="42.570600" lon="1.840613">
        <ele>2583.4</ele>
        <time>2019-11-30T11:10:16Z</time>
      </trkpt>
      <trkpt lat="42.570689" lon="1.840601">
        <ele>2580.3</ele>
        <time>2019-11-30T11:10:23Z</time>
      </trkpt>
      <trkpt lat="42.570778" lon="1.840600">
        <ele>2579.2</ele>
        <time>2019-11-30T11:10:30Z</time>
      </trkpt>
      <trkpt lat="42.570873" lon="1.840576">
        <ele>2575.1</ele>
        <time>2019-11-30T11:10:38Z</time>
      </trkpt>
      <trkpt lat="42.570963" lon="1.840567">
        <ele>2572.1</ele>
        <time>2019-11-30T11:10:45Z</time>
      </trkpt>
      <trkpt lat="42.571056" lon="1.840574">
        <ele>2568.6</ele>
        <time>2019-11-30T11:10:52Z</time>
      </trkpt>
      <trkpt lat="42.571136" lon="1.840644">
        <ele>2563.7</ele>
        <time>2019-11-30T11:11:00Z</time>
      </trkpt>
      <trkpt lat="42.571202" lon="1.840730">
        <ele>2561.7</ele>
        <time>2019-11-30T11:11:07Z</time>
      </trkpt>
      <trkpt lat="42.571249" lon="1.840845">
        <ele>2557.4</ele>
        <time>2019-11-30T11:11:15Z</time>
      </trkpt>
      <trkpt lat="42.571323" lon="1.840937">
        <ele>2556.6</ele>
        <time>2019-11-30T11:11:23Z</time>
      </trkpt>
      <trkpt lat="42.571413" lon="1.840992">
        <ele>2552.6</ele>
        <time>2019-11-30T11:11:30Z</time>
      </trkpt>
      <trkpt lat="42.571497" lon="1.841049">
        <ele>2549.3</ele>
        <time>2019-11-30T11:11:37Z</time>
      </trkpt>
      <trkpt lat="42.571575" lon="1.841133">
        <ele>2547.5</ele>
        <time>2019-11-30T11:11:45Z</time>
      </trkpt>
      <trkpt lat="42.571649" lon="1.841229">
        <ele>2545.3</ele>
        <time>2019-11-30T11:11:53Z</time>
      </trkpt>
      <trkpt lat="42.571741" lon="1.841288">
        <ele>2543.6</ele>
        <time>2019-11-30T11:12:03Z</time>
      </trkpt>
      <trkpt lat="42.571829" lon="1.841359">
        <ele>2541.2</ele>
        <time>2019-11-30T11:12:11Z</time>
      </trkpt>
      <trkpt lat="42.571916" lon="1.841413">
        <ele>2538.0</ele>
        <time>2019-11-30T11:12:20Z</time>
      </trkpt>
      <trkpt lat="42.571997" lon="1.841492">
        <ele>2535.4</ele>
        <time>2019-11-30T11:12:28Z</time>
      </trkpt>
      <trkpt lat="42.572089" lon="1.841544">
        <ele>2533.4</ele>
        <time>2019-11-30T11:12:36Z</time>
      </trkpt>
      <trkpt lat="42.572174" lon="1.841611">
        <ele>2531.6</ele>
        <time>2019-11-30T11:12:44Z</time>
      </trkpt>
      <trkpt lat="42.572249" lon="1.841677">
        <ele>2528.7</ele>
        <time>2019-11-30T11:12:51Z</time>
      </trkpt>
      <trkpt lat="42.572324" lon="1.841763">
        <ele>2526.8</ele>
        <time>2019-11-30T11:12:59Z</time>
      </trkpt>
      <trkpt lat="42.572401" lon="1.841857">
        <ele>2526.0</ele>
        <time>2019-11-30T11:13:07Z</time>
      </trkpt>
      <trkpt lat="42.572471" lon="1.841955">
        <ele>2523.9</ele>
        <time>2019-11-30T11:13:15Z</time>
      </trkpt>
      <trkpt lat="42.572553" lon="1.842023">
        <ele>2521.2</ele>
        <time>2019-11-30T11:13:23Z</time>
      </trkpt>
      <trkpt lat="42.572638" lon="1.842030">
        <ele>2518.5</ele>
        <time>2019-11-30T11:13:32Z</time>
      </trkpt>
      <trkpt lat="42.572707" lon="1.842059">
        <ele>2515.6</ele>
        <time>2019-11-30T11:13:47Z</time>
      </trkpt>
      <trkpt lat="42.572797" lon="1.842085">
        <ele>2511.9</ele>
        <time>2019-11-30T11:13:59Z</time>
      </trkpt>
      <trkpt lat="42.572888" lon="1.842101">
        <ele>2507.3</ele>
        <time>2019-11-30T11:14:07Z</time>
      </trkpt>
      <trkpt lat="42.572976" lon="1.842177">
        <ele>2505.2</ele>
        <time>2019-11-30T11:14:15Z</time>
      </trkpt>
      <trkpt lat="42.573043" lon="1.842290">
        <ele>2503.6</ele>
        <time>2019-11-30T11:14:23Z</time>
      </trkpt>
      <trkpt lat="42.573106" lon="1.842393">
        <ele>2501.8</ele>
        <time>2019-11-30T11:14:30Z</time>
      </trkpt>
      <trkpt lat="42.573184" lon="1.842464">
        <ele>2501.0</ele>
        <time>2019-11-30T11:14:37Z</time>
      </trkpt>
      <trkpt lat="42.573261" lon="1.842544">
        <ele>2501.1</ele>
        <time>2019-11-30T11:14:45Z</time>
      </trkpt>
      <trkpt lat="42.573336" lon="1.842625">
        <ele>2501.1</ele>
        <time>2019-11-30T11:14:53Z</time>
      </trkpt>
      <trkpt lat="42.573407" lon="1.842722">
        <ele>2501.1</ele>
        <time>2019-11-30T11:15:03Z</time>
      </trkpt>
      <trkpt lat="42.573482" lon="1.842809">
        <ele>2501.2</ele>
        <time>2019-11-30T11:15:14Z</time>
      </trkpt>
      <trkpt lat="42.573546" lon="1.842896">
        <ele>2504.4</ele>
        <time>2019-11-30T11:15:25Z</time>
      </trkpt>
      <trkpt lat="42.573626" lon="1.842930">
        <ele>2507.8</ele>
        <time>2019-11-30T11:15:45Z</time>
      </trkpt>
      <trkpt lat="42.573709" lon="1.842980">
        <ele>2510.2</ele>
        <time>2019-11-30T11:16:07Z</time>
      </trkpt>
      <trkpt lat="42.573783" lon="1.843038">
        <ele>2513.8</ele>
        <time>2019-11-30T11:16:30Z</time>
      </trkpt>
      <trkpt lat="42.573864" lon="1.843013">
        <ele>2517.5</ele>
        <time>2019-11-30T11:16:50Z</time>
      </trkpt>
      <trkpt lat="42.573926" lon="1.843072">
        <ele>2519.6</ele>
        <time>2019-11-30T11:17:07Z</time>
      </trkpt>
      <trkpt lat="42.574014" lon="1.843085">
        <ele>2523.8</ele>
        <time>2019-11-30T11:17:27Z</time>
      </trkpt>
      <trkpt lat="42.574106" lon="1.843099">
        <ele>2526.9</ele>
        <time>2019-11-30T11:17:48Z</time>
      </trkpt>
      <trkpt lat="42.574153" lon="1.843178">
        <ele>2532.1</ele>
        <time>2019-11-30T11:18:12Z</time>
      </trkpt>
      <trkpt lat="42.574223" lon="1.843221">
        <ele>2535.5</ele>
        <time>2019-11-30T11:18:38Z</time>
      </trkpt>
      <trkpt lat="42.574278" lon="1.843284">
        <ele>2539.8</ele>
        <time>2019-11-30T11:19:02Z</time>
      </trkpt>
      <trkpt lat="42.574329" lon="1.843379">
        <ele>2542.2</ele>
        <time>2019-11-30T11:19:24Z</time>
      </trkpt>
      <trkpt lat="42.574350" lon="1.843502">
        <ele>2545.1</ele>
        <time>2019-11-30T11:19:42Z</time>
      </trkpt>
      <trkpt lat="42.574415" lon="1.843566">
        <ele>2548.0</ele>
        <time>2019-11-30T11:19:59Z</time>
      </trkpt>
      <trkpt lat="42.574483" lon="1.843655">
        <ele>2549.6</ele>
        <time>2019-11-30T11:20:15Z</time>
      </trkpt>
      <trkpt lat="42.574544" lon="1.843716">
        <ele>2552.4</ele>
        <time>2019-11-30T11:20:37Z</time>
      </trkpt>
      <trkpt lat="42.574570" lon="1.843830">
        <ele>2553.2</ele>
        <time>2019-11-30T11:20:51Z</time>
      </trkpt>
      <trkpt lat="42.574651" lon="1.843904">
        <ele>2554.9</ele>
        <time>2019-11-30T11:21:06Z</time>
      </trkpt>
      <trkpt lat="42.574671" lon="1.844008">
        <ele>2556.8</ele>
        <time>2019-11-30T11:21:24Z</time>
      </trkpt>
      <trkpt lat="42.574732" lon="1.844086">
        <ele>2558.6</ele>
        <time>2019-11-30T11:21:41Z</time>
      </trkpt>
      <trkpt lat="42.574756" lon="1.844204">
        <ele>2558.5</ele>
        <time>2019-11-30T11:21:52Z</time>
      </trkpt>
      <trkpt lat="42.574784" lon="1.844329">
        <ele>2558.5</ele>
        <time>2019-11-30T11:22:03Z</time>
      </trkpt>
      <trkpt lat="42.574822" lon="1.844441">
        <ele>2555.2</ele>
        <time>2019-11-30T11:22:12Z</time>
      </trkpt>
      <trkpt lat="42.574874" lon="1.844552">
        <ele>2553.4</ele>
        <time>2019-11-30T11:22:22Z</time>
      </trkpt>
      <trkpt lat="42.574930" lon="1.844648">
        <ele>2551.6</ele>
        <time>2019-11-30T11:22:30Z</time>
      </trkpt>
      <trkpt lat="42.574968" lon="1.844765">
        <ele>2551.6</ele>
        <time>2019-11-30T11:22:40Z</time>
      </trkpt>
      <trkpt lat="42.575018" lon="1.844878">
        <ele>2551.7</ele>
        <time>2019-11-30T11:22:50Z</time>
      </trkpt>
      <trkpt lat="42.575071" lon="1.844988">
        <ele>2550.7</ele>
        <time>2019-11-30T11:22:59Z</time>
      </trkpt>
      <trkpt lat="42.575112" lon="1.845100">
        <ele>2549.9</ele>
        <time>2019-11-30T11:23:08Z</time>
      </trkpt>
      <trkpt lat="42.575143" lon="1.845213">
        <ele>2549.0</ele>
        <time>2019-11-30T11:23:19Z</time>
      </trkpt>
      <trkpt lat="42.575155" lon="1.845331">
        <ele>2549.0</ele>
        <time>2019-11-30T11:23:31Z</time>
      </trkpt>
      <trkpt lat="42.575214" lon="1.845431">
        <ele>2549.0</ele>
        <time>2019-11-30T11:23:45Z</time>
      </trkpt>
      <trkpt lat="42.575248" lon="1.845539">
        <ele>2549.0</ele>
        <time>2019-11-30T11:24:05Z</time>
      </trkpt>
      <trkpt lat="42.575285" lon="1.845651">
        <ele>2546.9</ele>
        <time>2019-11-30T11:24:21Z</time>
      </trkpt>
      <trkpt lat="42.575313" lon="1.845759">
        <ele>2544.2</ele>
        <time>2019-11-30T11:24:33Z</time>
      </trkpt>
      <trkpt lat="42.575337" lon="1.845870">
        <ele>2542.7</ele>
        <time>2019-11-30T11:24:49Z</time>
      </trkpt>
      <trkpt lat="42.575333" lon="1.845994">
        <ele>2541.1</ele>
        <time>2019-11-30T11:25:03Z</time>
      </trkpt>
      <trkpt lat="42.575374" lon="1.846086">
        <ele>2538.6</ele>
        <time>2019-11-30T11:25:16Z</time>
      </trkpt>
      <trkpt lat="42.575411" lon="1.846192">
        <ele>2537.1</ele>
        <time>2019-11-30T11:25:31Z</time>
      </trkpt>
      <trkpt lat="42.575460" lon="1.846295">
        <ele>2537.1</ele>
        <time>2019-11-30T11:25:44Z</time>
      </trkpt>
      <trkpt lat="42.575493" lon="1.846410">
        <ele>2537.2</ele>
        <time>2019-11-30T11:25:57Z</time>
      </trkpt>
      <trkpt lat="42.575548" lon="1.846506">
        <ele>2539.5</ele>
        <time>2019-11-30T11:26:10Z</time>
      </trkpt>
      <trkpt lat="42.575581" lon="1.846622">
        <ele>2540.3</ele>
        <time>2019-11-30T11:26:22Z</time>
      </trkpt>
      <trkpt lat="42.575622" lon="1.846742">
        <ele>2541.1</ele>
        <time>2019-11-30T11:26:34Z</time>
      </trkpt>
      <trkpt lat="42.575663" lon="1.846857">
        <ele>2542.8</ele>
        <time>2019-11-30T11:26:46Z</time>
      </trkpt>
      <trkpt lat="42.575727" lon="1.846946">
        <ele>2546.7</ele>
        <time>2019-11-30T11:27:02Z</time>
      </trkpt>
      <trkpt lat="42.575808" lon="1.847004">
        <ele>2550.1</ele>
        <time>2019-11-30T11:27:22Z</time>
      </trkpt>
      <trkpt lat="42.575850" lon="1.847119">
        <ele>2552.4</ele>
        <time>2019-11-30T11:27:41Z</time>
      </trkpt>
      <trkpt lat="42.575903" lon="1.847217">
        <ele>2556.6</ele>
        <time>2019-11-30T11:28:01Z</time>
      </trkpt>
      <trkpt lat="42.575945" lon="1.847328">
        <ele>2560.0</ele>
        <time>2019-11-30T11:28:19Z</time>
      </trkpt>
      <trkpt lat="42.575995" lon="1.847425">
        <ele>2564.0</ele>
        <time>2019-11-30T11:28:38Z</time>
      </trkpt>
      <trkpt lat="42.576045" lon="1.847510">
        <ele>2568.0</ele>
        <time>2019-11-30T11:29:01Z</time>
      </trkpt>
      <trkpt lat="42.576109" lon="1.847570">
        <ele>2570.8</ele>
        <time>2019-11-30T11:29:23Z</time>
      </trkpt>
      <trkpt lat="42.576174" lon="1.847647">
        <ele>2573.4</ele>
        <time>2019-11-30T11:29:45Z</time>
      </trkpt>
      <trkpt lat="42.576238" lon="1.847725">
        <ele>2578.4</ele>
        <time>2019-11-30T11:30:11Z</time>
      </trkpt>
      <trkpt lat="42.576271" lon="1.847834">
        <ele>2581.1</ele>
        <time>2019-11-30T11:30:30Z</time>
      </trkpt>
      <trkpt lat="42.576358" lon="1.847837">
        <ele>2584.7</ele>
        <time>2019-11-30T11:30:53Z</time>
      </trkpt>
      <trkpt lat="42.576415" lon="1.847885">
        <ele>2588.8</ele>
        <time>2019-11-30T11:31:19Z</time>
      </trkpt>
      <trkpt lat="42.576435" lon="1.847998">
        <ele>2592.0</ele>
        <time>2019-11-30T11:31:39Z</time>
      </trkpt>
      <trkpt lat="42.576475" lon="1.848088">
        <ele>2596.3</ele>
        <time>2019-11-30T11:32:03Z</time>
      </trkpt>
      <trkpt lat="42.576525" lon="1.848156">
        <ele>2599.7</ele>
        <time>2019-11-30T11:32:30Z</time>
      </trkpt>
      <trkpt lat="42.576609" lon="1.848136">
        <ele>2604.7</ele>
        <time>2019-11-30T11:32:55Z</time>
      </trkpt>
      <trkpt lat="42.576625" lon="1.848252">
        <ele>2608.1</ele>
        <time>2019-11-30T11:33:18Z</time>
      </trkpt>
      <trkpt lat="42.576672" lon="1.848339">
        <ele>2612.2</ele>
        <time>2019-11-30T11:33:44Z</time>
      </trkpt>
      <trkpt lat="42.576723" lon="1.848401">
        <ele>2616.1</ele>
        <time>2019-11-30T11:34:06Z</time>
      </trkpt>
      <trkpt lat="42.576776" lon="1.848454">
        <ele>2620.6</ele>
        <time>2019-11-30T11:34:32Z</time>
      </trkpt>
      <trkpt lat="42.576802" lon="1.848549">
        <ele>2625.1</ele>
        <time>2019-11-30T11:34:55Z</time>
      </trkpt>
      <trkpt lat="42.576800" lon="1.848656">
        <ele>2629.0</ele>
        <time>2019-11-30T11:35:17Z</time>
      </trkpt>
      <trkpt lat="42.576830" lon="1.848761">
        <ele>2631.8</ele>
        <time>2019-11-30T11:35:42Z</time>
      </trkpt>
      <trkpt lat="42.576876" lon="1.848864">
        <ele>2632.6</ele>
        <time>2019-11-30T11:35:54Z</time>
      </trkpt>
      <trkpt lat="42.576931" lon="1.848956">
        <ele>2634.3</ele>
        <time>2019-11-30T11:36:08Z</time>
      </trkpt>
      <trkpt lat="42.576992" lon="1.849049">
        <ele>2634.3</ele>
        <time>2019-11-30T11:36:20Z</time>
      </trkpt>
      <trkpt lat="42.577077" lon="1.849110">
        <ele>2634.3</ele>
        <time>2019-11-30T11:36:37Z</time>
      </trkpt>
      <trkpt lat="42.577147" lon="1.849137">
        <ele>2636.9</ele>
        <time>2019-11-30T11:36:57Z</time>
      </trkpt>
      <trkpt lat="42.577259" lon="1.849201">
        <ele>2643.4</ele>
        <time>2019-11-30T11:37:44Z</time>
      </trkpt>
      <trkpt lat="42.577336" lon="1.849264">
        <ele>2647.8</ele>
        <time>2019-11-30T11:38:13Z</time>
      </trkpt>
      <trkpt lat="42.577414" lon="1.849309">
        <ele>2650.4</ele>
        <time>2019-11-30T11:38:41Z</time>
      </trkpt>
      <trkpt lat="42.577488" lon="1.849381">
        <ele>2651.3</ele>
        <time>2019-11-30T11:39:11Z</time>
      </trkpt>
      <trkpt lat="42.577537" lon="1.849492">
        <ele>2651.3</ele>
        <time>2019-11-30T11:39:25Z</time>
      </trkpt>
      <trkpt lat="42.577573" lon="1.849482">
        <ele>2653.1</ele>
        <time>2019-11-30T11:43:39Z</time>
      </trkpt>
      <trkpt lat="42.577616" lon="1.849591">
        <ele>2653.1</ele>
        <time>2019-11-30T11:44:01Z</time>
      </trkpt>
      <trkpt lat="42.577681" lon="1.849629">
        <ele>2648.1</ele>
        <time>2019-11-30T11:44:18Z</time>
      </trkpt>
      <trkpt lat="42.577732" lon="1.849706">
        <ele>2644.4</ele>
        <time>2019-11-30T11:44:33Z</time>
      </trkpt>
      <trkpt lat="42.577797" lon="1.849780">
        <ele>2642.8</ele>
        <time>2019-11-30T11:44:50Z</time>
      </trkpt>
      <trkpt lat="42.577843" lon="1.849839">
        <ele>2641.9</ele>
        <time>2019-11-30T11:45:06Z</time>
      </trkpt>
      <trkpt lat="42.577914" lon="1.849906">
        <ele>2639.1</ele>
        <time>2019-11-30T11:45:22Z</time>
      </trkpt>
      <trkpt lat="42.577954" lon="1.850001">
        <ele>2639.3</ele>
        <time>2019-11-30T11:45:41Z</time>
      </trkpt>
      <trkpt lat="42.577998" lon="1.850097">
        <ele>2635.4</ele>
        <time>2019-11-30T11:46:04Z</time>
      </trkpt>
      <trkpt lat="42.578031" lon="1.850192">
        <ele>2635.6</ele>
        <time>2019-11-30T11:46:38Z</time>
      </trkpt>
      <trkpt lat="42.578037" lon="1.850305">
        <ele>2630.5</ele>
        <time>2019-11-30T11:47:09Z</time>
      </trkpt>
      <trkpt lat="42.578061" lon="1.850424">
        <ele>2625.5</ele>
        <time>2019-11-30T11:47:26Z</time>
      </trkpt>
      <trkpt lat="42.578069" lon="1.850534">
        <ele>2622.7</ele>
        <time>2019-11-30T11:47:43Z</time>
      </trkpt>
      <trkpt lat="42.578101" lon="1.850650">
        <ele>2618.4</ele>
        <time>2019-11-30T11:48:04Z</time>
      </trkpt>
      <trkpt lat="42.578124" lon="1.850765">
        <ele>2614.8</ele>
        <time>2019-11-30T11:48:17Z</time>
      </trkpt>
      <trkpt lat="42.578194" lon="1.850832">
        <ele>2613.1</ele>
        <time>2019-11-30T11:48:28Z</time>
      </trkpt>
      <trkpt lat="42.578222" lon="1.850940">
        <ele>2611.7</ele>
        <time>2019-11-30T11:48:52Z</time>
      </trkpt>
      <trkpt lat="42.578211" lon="1.851061">
        <ele>2610.9</ele>
        <time>2019-11-30T11:49:03Z</time>
      </trkpt>
      <trkpt lat="42.578205" lon="1.851183">
        <ele>2611.0</ele>
        <time>2019-11-30T11:49:20Z</time>
      </trkpt>
      <trkpt lat="42.578250" lon="1.851283">
        <ele>2610.9</ele>
        <time>2019-11-30T11:49:32Z</time>
      </trkpt>
      <trkpt lat="42.578308" lon="1.851377">
        <ele>2607.2</ele>
        <time>2019-11-30T11:49:42Z</time>
      </trkpt>
      <trkpt lat="42.578373" lon="1.851457">
        <ele>2603.4</ele>
        <time>2019-11-30T11:49:55Z</time>
      </trkpt>
      <trkpt lat="42.578465" lon="1.851442">
        <ele>2601.4</ele>
        <time>2019-11-30T11:50:05Z</time>
      </trkpt>
      <trkpt lat="42.578555" lon="1.851455">
        <ele>2600.7</ele>
        <time>2019-11-30T11:50:15Z</time>
      </trkpt>
      <trkpt lat="42.578642" lon="1.851481">
        <ele>2599.9</ele>
        <time>2019-11-30T11:50:25Z</time>
      </trkpt>
      <trkpt lat="42.578710" lon="1.851556">
        <ele>2598.4</ele>
        <time>2019-11-30T11:50:43Z</time>
      </trkpt>
      <trkpt lat="42.578789" lon="1.851618">
        <ele>2597.4</ele>
        <time>2019-11-30T11:50:51Z</time>
      </trkpt>
      <trkpt lat="42.578875" lon="1.851681">
        <ele>2596.4</ele>
        <time>2019-11-30T11:50:59Z</time>
      </trkpt>
      <trkpt lat="42.578948" lon="1.851766">
        <ele>2594.8</ele>
        <time>2019-11-30T11:51:07Z</time>
      </trkpt>
      <trkpt lat="42.579030" lon="1.851794">
        <ele>2593.7</ele>
        <time>2019-11-30T11:51:16Z</time>
      </trkpt>
      <trkpt lat="42.579111" lon="1.851854">
        <ele>2591.8</ele>
        <time>2019-11-30T11:51:26Z</time>
      </trkpt>
      <trkpt lat="42.579188" lon="1.851855">
        <ele>2591.0</ele>
        <time>2019-11-30T11:51:35Z</time>
      </trkpt>
      <trkpt lat="42.579274" lon="1.851857">
        <ele>2588.4</ele>
        <time>2019-11-30T11:51:47Z</time>
      </trkpt>
      <trkpt lat="42.579357" lon="1.851907">
        <ele>2585.5</ele>
        <time>2019-11-30T11:51:58Z</time>
      </trkpt>
      <trkpt lat="42.579442" lon="1.851972">
        <ele>2581.5</ele>
        <time>2019-11-30T11:52:08Z</time>
      </trkpt>
      <trkpt lat="42.579522" lon="1.852052">
        <ele>2578.0</ele>
        <time>2019-11-30T11:52:18Z</time>
      </trkpt>
      <trkpt lat="42.579607" lon="1.852116">
        <ele>2575.1</ele>
        <time>2019-11-30T11:52:29Z</time>
      </trkpt>
      <trkpt lat="42.579684" lon="1.852170">
        <ele>2572.5</ele>
        <time>2019-11-30T11:52:38Z</time>
      </trkpt>
      <trkpt lat="42.579770" lon="1.852231">
        <ele>2571.8</ele>
        <time>2019-11-30T11:52:49Z</time>
      </trkpt>
      <trkpt lat="42.579860" lon="1.852290">
        <ele>2571.0</ele>
        <time>2019-11-30T11:53:00Z</time>
      </trkpt>
      <trkpt lat="42.579945" lon="1.852332">
        <ele>2571.0</ele>
        <time>2019-11-30T11:53:13Z</time>
      </trkpt>
      <trkpt lat="42.580036" lon="1.852367">
        <ele>2571.0</ele>
        <time>2019-11-30T11:53:27Z</time>
      </trkpt>
      <trkpt lat="42.580129" lon="1.852416">
        <ele>2571.1</ele>
        <time>2019-11-30T11:53:42Z</time>
      </trkpt>
      <trkpt lat="42.580213" lon="1.852467">
        <ele>2574.2</ele>
        <time>2019-11-30T11:53:54Z</time>
      </trkpt>
      <trkpt lat="42.580298" lon="1.852526">
        <ele>2574.2</ele>
        <time>2019-11-30T11:54:05Z</time>
      </trkpt>
      <trkpt lat="42.580376" lon="1.852579">
        <ele>2574.2</ele>
        <time>2019-11-30T11:54:17Z</time>
      </trkpt>
      <trkpt lat="42.580454" lon="1.852663">
        <ele>2574.2</ele>
        <time>2019-11-30T11:54:28Z</time>
      </trkpt>
      <trkpt lat="42.580525" lon="1.852763">
        <ele>2574.9</ele>
        <time>2019-11-30T11:54:38Z</time>
      </trkpt>
      <trkpt lat="42.580600" lon="1.852835">
        <ele>2575.0</ele>
        <time>2019-11-30T11:54:47Z</time>
      </trkpt>
      <trkpt lat="42.580695" lon="1.852869">
        <ele>2577.9</ele>
        <time>2019-11-30T11:54:59Z</time>
      </trkpt>
      <trkpt lat="42.580783" lon="1.852921">
        <ele>2574.3</ele>
        <time>2019-11-30T11:55:10Z</time>
      </trkpt>
      <trkpt lat="42.580858" lon="1.852983">
        <ele>2575.7</ele>
        <time>2019-11-30T11:55:22Z</time>
      </trkpt>
      <trkpt lat="42.580940" lon="1.853025">
        <ele>2575.8</ele>
        <time>2019-11-30T11:55:31Z</time>
      </trkpt>
      <trkpt lat="42.581012" lon="1.853117">
        <ele>2575.9</ele>
        <time>2019-11-30T11:55:41Z</time>
      </trkpt>
      <trkpt lat="42.581069" lon="1.853195">
        <ele>2575.9</ele>
        <time>2019-11-30T11:55:58Z</time>
      </trkpt>
      <trkpt lat="42.581145" lon="1.853242">
        <ele>2575.1</ele>
        <time>2019-11-30T11:56:53Z</time>
      </trkpt>
      <trkpt lat="42.581204" lon="1.853331">
        <ele>2574.2</ele>
        <time>2019-11-30T11:57:04Z</time>
      </trkpt>
      <trkpt lat="42.581252" lon="1.853404">
        <ele>2571.8</ele>
        <time>2019-11-30T11:58:16Z</time>
      </trkpt>
      <trkpt lat="42.581315" lon="1.853501">
        <ele>2569.0</ele>
        <time>2019-11-30T11:58:27Z</time>
      </trkpt>
      <trkpt lat="42.581389" lon="1.853539">
        <ele>2565.0</ele>
        <time>2019-11-30T11:58:37Z</time>
      </trkpt>
      <trkpt lat="42.581437" lon="1.853523">
        <ele>2564.0</ele>
        <time>2019-11-30T12:05:18Z</time>
      </trkpt>
      <trkpt lat="42.581587" lon="1.853525">
        <ele>2556.7</ele>
        <time>2019-11-30T12:06:34Z</time>
      </trkpt>
      <trkpt lat="42.581649" lon="1.853537">
        <ele>2553.0</ele>
        <time>2019-11-30T12:06:48Z</time>
      </trkpt>
      <trkpt lat="42.581710" lon="1.853469">
        <ele>2548.6</ele>
        <time>2019-11-30T12:07:03Z</time>
      </trkpt>
      <trkpt lat="42.581798" lon="1.853447">
        <ele>2542.4</ele>
        <time>2019-11-30T12:07:19Z</time>
      </trkpt>
      <trkpt lat="42.581894" lon="1.853472">
        <ele>2539.5</ele>
        <time>2019-11-30T12:07:32Z</time>
      </trkpt>
      <trkpt lat="42.581986" lon="1.853491">
        <ele>2537.1</ele>
        <time>2019-11-30T12:07:49Z</time>
      </trkpt>
      <trkpt lat="42.582059" lon="1.853405">
        <ele>2534.5</ele>
        <time>2019-11-30T12:07:59Z</time>
      </trkpt>
      <trkpt lat="42.582119" lon="1.853366">
        <ele>2531.7</ele>
        <time>2019-11-30T12:08:27Z</time>
      </trkpt>
      <trkpt lat="42.582187" lon="1.853255">
        <ele>2529.1</ele>
        <time>2019-11-30T12:08:45Z</time>
      </trkpt>
      <trkpt lat="42.582267" lon="1.853178">
        <ele>2527.3</ele>
        <time>2019-11-30T12:08:57Z</time>
      </trkpt>
      <trkpt lat="42.582370" lon="1.853180">
        <ele>2526.6</ele>
        <time>2019-11-30T12:09:10Z</time>
      </trkpt>
      <trkpt lat="42.582475" lon="1.853171">
        <ele>2526.5</ele>
        <time>2019-11-30T12:09:26Z</time>
      </trkpt>
      <trkpt lat="42.582576" lon="1.853162">
        <ele>2529.6</ele>
        <time>2019-11-30T12:09:45Z</time>
      </trkpt>
      <trkpt lat="42.582642" lon="1.853105">
        <ele>2533.0</ele>
        <time>2019-11-30T12:10:05Z</time>
      </trkpt>
      <trkpt lat="42.582727" lon="1.853076">
        <ele>2535.5</ele>
        <time>2019-11-30T12:10:25Z</time>
      </trkpt>
      <trkpt lat="42.582806" lon="1.853030">
        <ele>2539.7</ele>
        <time>2019-11-30T12:10:54Z</time>
      </trkpt>
      <trkpt lat="42.582890" lon="1.852989">
        <ele>2544.2</ele>
        <time>2019-11-30T12:11:16Z</time>
      </trkpt>
      <trkpt lat="42.582987" lon="1.852964">
        <ele>2546.9</ele>
        <time>2019-11-30T12:11:40Z</time>
      </trkpt>
      <trkpt lat="42.583077" lon="1.852944">
        <ele>2548.7</ele>
        <time>2019-11-30T12:11:58Z</time>
      </trkpt>
      <trkpt lat="42.583152" lon="1.852889">
        <ele>2551.2</ele>
        <time>2019-11-30T12:12:16Z</time>
      </trkpt>
      <trkpt lat="42.583242" lon="1.852890">
        <ele>2552.9</ele>
        <time>2019-11-30T12:12:35Z</time>
      </trkpt>
      <trkpt lat="42.583331" lon="1.852870">
        <ele>2555.4</ele>
        <time>2019-11-30T12:12:54Z</time>
      </trkpt>
      <trkpt lat="42.583419" lon="1.852859">
        <ele>2557.2</ele>
        <time>2019-11-30T12:13:11Z</time>
      </trkpt>
      <trkpt lat="42.583503" lon="1.852843">
        <ele>2558.9</ele>
        <time>2019-11-30T12:13:27Z</time>
      </trkpt>
      <trkpt lat="42.583585" lon="1.852790">
        <ele>2561.3</ele>
        <time>2019-11-30T12:13:45Z</time>
      </trkpt>
      <trkpt lat="42.583678" lon="1.852761">
        <ele>2562.0</ele>
        <time>2019-11-30T12:13:59Z</time>
      </trkpt>
      <trkpt lat="42.583772" lon="1.852743">
        <ele>2563.8</ele>
        <time>2019-11-30T12:14:14Z</time>
      </trkpt>
      <trkpt lat="42.583860" lon="1.852739">
        <ele>2564.6</ele>
        <time>2019-11-30T12:14:30Z</time>
      </trkpt>
      <trkpt lat="42.583959" lon="1.852723">
        <ele>2566.3</ele>
        <time>2019-11-30T12:14:47Z</time>
      </trkpt>
      <trkpt lat="42.584056" lon="1.852719">
        <ele>2568.9</ele>
        <time>2019-11-30T12:15:00Z</time>
      </trkpt>
      <trkpt lat="42.584151" lon="1.852723">
        <ele>2569.8</ele>
        <time>2019-11-30T12:15:14Z</time>
      </trkpt>
      <trkpt lat="42.584241" lon="1.852709">
        <ele>2569.7</ele>
        <time>2019-11-30T12:15:26Z</time>
      </trkpt>
      <trkpt lat="42.584332" lon="1.852688">
        <ele>2569.7</ele>
        <time>2019-11-30T12:15:40Z</time>
      </trkpt>
      <trkpt lat="42.584423" lon="1.852651">
        <ele>2569.6</ele>
        <time>2019-11-30T12:15:57Z</time>
      </trkpt>
      <trkpt lat="42.584516" lon="1.852623">
        <ele>2569.6</ele>
        <time>2019-11-30T12:16:11Z</time>
      </trkpt>
      <trkpt lat="42.584609" lon="1.852602">
        <ele>2569.6</ele>
        <time>2019-11-30T12:16:25Z</time>
      </trkpt>
      <trkpt lat="42.584694" lon="1.852601">
        <ele>2569.6</ele>
        <time>2019-11-30T12:16:40Z</time>
      </trkpt>
      <trkpt lat="42.584787" lon="1.852577">
        <ele>2570.6</ele>
        <time>2019-11-30T12:16:57Z</time>
      </trkpt>
      <trkpt lat="42.584867" lon="1.852574">
        <ele>2571.4</ele>
        <time>2019-11-30T12:17:17Z</time>
      </trkpt>
      <trkpt lat="42.584956" lon="1.852599">
        <ele>2572.2</ele>
        <time>2019-11-30T12:17:36Z</time>
      </trkpt>
      <trkpt lat="42.585029" lon="1.852619">
        <ele>2572.1</ele>
        <time>2019-11-30T12:17:51Z</time>
      </trkpt>
      <trkpt lat="42.585123" lon="1.852643">
        <ele>2572.1</ele>
        <time>2019-11-30T12:18:06Z</time>
      </trkpt>
      <trkpt lat="42.585219" lon="1.852643">
        <ele>2572.1</ele>
        <time>2019-11-30T12:18:22Z</time>
      </trkpt>
      <trkpt lat="42.585304" lon="1.852630">
        <ele>2572.9</ele>
        <time>2019-11-30T12:18:36Z</time>
      </trkpt>
      <trkpt lat="42.585400" lon="1.852611">
        <ele>2574.5</ele>
        <time>2019-11-30T12:18:50Z</time>
      </trkpt>
      <trkpt lat="42.585493" lon="1.852578">
        <ele>2574.4</ele>
        <time>2019-11-30T12:19:04Z</time>
      </trkpt>
      <trkpt lat="42.585580" lon="1.852528">
        <ele>2575.2</ele>
        <time>2019-11-30T12:19:23Z</time>
      </trkpt>
      <trkpt lat="42.585669" lon="1.852483">
        <ele>2576.0</ele>
        <time>2019-11-30T12:19:39Z</time>
      </trkpt>
      <trkpt lat="42.585766" lon="1.852484">
        <ele>2576.8</ele>
        <time>2019-11-30T12:19:52Z</time>
      </trkpt>
      <trkpt lat="42.585859" lon="1.852504">
        <ele>2577.7</ele>
        <time>2019-11-30T12:20:05Z</time>
      </trkpt>
      <trkpt lat="42.585950" lon="1.852528">
        <ele>2577.7</ele>
        <time>2019-11-30T12:20:17Z</time>
      </trkpt>
      <trkpt lat="42.586042" lon="1.852552">
        <ele>2578.4</ele>
        <time>2019-11-30T12:20:31Z</time>
      </trkpt>
      <trkpt lat="42.586124" lon="1.852544">
        <ele>2578.4</ele>
        <time>2019-11-30T12:20:46Z</time>
      </trkpt>
      <trkpt lat="42.586206" lon="1.852614">
        <ele>2578.3</ele>
        <time>2019-11-30T12:20:58Z</time>
      </trkpt>
      <trkpt lat="42.586295" lon="1.852637">
        <ele>2578.3</ele>
        <time>2019-11-30T12:21:10Z</time>
      </trkpt>
      <trkpt lat="42.586386" lon="1.852673">
        <ele>2578.2</ele>
        <time>2019-11-30T12:21:23Z</time>
      </trkpt>
      <trkpt lat="42.586470" lon="1.852711">
        <ele>2578.2</ele>
        <time>2019-11-30T12:21:34Z</time>
      </trkpt>
      <trkpt lat="42.586557" lon="1.852759">
        <ele>2578.2</ele>
        <time>2019-11-30T12:21:45Z</time>
      </trkpt>
      <trkpt lat="42.586643" lon="1.852789">
        <ele>2578.2</ele>
        <time>2019-11-30T12:21:57Z</time>
      </trkpt>
      <trkpt lat="42.586722" lon="1.852862">
        <ele>2579.0</ele>
        <time>2019-11-30T12:22:11Z</time>
      </trkpt>
      <trkpt lat="42.586797" lon="1.852940">
        <ele>2578.9</ele>
        <time>2019-11-30T12:22:22Z</time>
      </trkpt>
      <trkpt lat="42.586879" lon="1.852998">
        <ele>2578.9</ele>
        <time>2019-11-30T12:22:33Z</time>
      </trkpt>
      <trkpt lat="42.586969" lon="1.853014">
        <ele>2579.7</ele>
        <time>2019-11-30T12:22:45Z</time>
      </trkpt>
      <trkpt lat="42.587057" lon="1.852996">
        <ele>2582.5</ele>
        <time>2019-11-30T12:23:01Z</time>
      </trkpt>
      <trkpt lat="42.587140" lon="1.853055">
        <ele>2583.2</ele>
        <time>2019-11-30T12:23:14Z</time>
      </trkpt>
      <trkpt lat="42.587209" lon="1.853137">
        <ele>2583.1</ele>
        <time>2019-11-30T12:23:25Z</time>
      </trkpt>
      <trkpt lat="42.587290" lon="1.853211">
        <ele>2583.9</ele>
        <time>2019-11-30T12:23:37Z</time>
      </trkpt>
      <trkpt lat="42.587365" lon="1.853247">
        <ele>2583.8</ele>
        <time>2019-11-30T12:23:49Z</time>
      </trkpt>
      <trkpt lat="42.587449" lon="1.853318">
        <ele>2583.7</ele>
        <time>2019-11-30T12:24:02Z</time>
      </trkpt>
      <trkpt lat="42.587540" lon="1.853328">
        <ele>2583.7</ele>
        <time>2019-11-30T12:24:16Z</time>
      </trkpt>
      <trkpt lat="42.587631" lon="1.853330">
        <ele>2583.6</ele>
        <time>2019-11-30T12:24:44Z</time>
      </trkpt>
      <trkpt lat="42.587635" lon="1.853302">
        <ele>2581.4</ele>
        <time>2019-11-30T13:03:42Z</time>
      </trkpt>
      <trkpt lat="42.587606" lon="1.853331">
        <ele>2584.1</ele>
        <time>2019-11-30T13:06:23Z</time>
      </trkpt>
      <trkpt lat="42.587574" lon="1.853328">
        <ele>2584.5</ele>
        <time>2019-11-30T13:07:01Z</time>
      </trkpt>
      <trkpt lat="42.587484" lon="1.853317">
        <ele>2583.9</ele>
        <time>2019-11-30T13:07:27Z</time>
      </trkpt>
      <trkpt lat="42.587391" lon="1.853283">
        <ele>2583.9</ele>
        <time>2019-11-30T13:07:38Z</time>
      </trkpt>
      <trkpt lat="42.587308" lon="1.853218">
        <ele>2583.0</ele>
        <time>2019-11-30T13:07:49Z</time>
      </trkpt>
      <trkpt lat="42.587230" lon="1.853167">
        <ele>2581.9</ele>
        <time>2019-11-30T13:07:58Z</time>
      </trkpt>
      <trkpt lat="42.587144" lon="1.853124">
        <ele>2581.2</ele>
        <time>2019-11-30T13:08:08Z</time>
      </trkpt>
      <trkpt lat="42.587058" lon="1.853068">
        <ele>2580.4</ele>
        <time>2019-11-30T13:08:19Z</time>
      </trkpt>
      <trkpt lat="42.586964" lon="1.853021">
        <ele>2580.3</ele>
        <time>2019-11-30T13:08:30Z</time>
      </trkpt>
      <trkpt lat="42.586878" lon="1.852978">
        <ele>2579.5</ele>
        <time>2019-11-30T13:08:39Z</time>
      </trkpt>
      <trkpt lat="42.586796" lon="1.852910">
        <ele>2579.5</ele>
        <time>2019-11-30T13:08:48Z</time>
      </trkpt>
      <trkpt lat="42.586711" lon="1.852851">
        <ele>2579.5</ele>
        <time>2019-11-30T13:08:57Z</time>
      </trkpt>
      <trkpt lat="42.586641" lon="1.852776">
        <ele>2579.6</ele>
        <time>2019-11-30T13:09:07Z</time>
      </trkpt>
      <trkpt lat="42.586556" lon="1.852731">
        <ele>2579.6</ele>
        <time>2019-11-30T13:09:16Z</time>
      </trkpt>
      <trkpt lat="42.586470" lon="1.852692">
        <ele>2579.5</ele>
        <time>2019-11-30T13:09:24Z</time>
      </trkpt>
      <trkpt lat="42.586374" lon="1.852665">
        <ele>2578.4</ele>
        <time>2019-11-30T13:09:33Z</time>
      </trkpt>
      <trkpt lat="42.586291" lon="1.852610">
        <ele>2577.6</ele>
        <time>2019-11-30T13:09:42Z</time>
      </trkpt>
      <trkpt lat="42.586209" lon="1.852559">
        <ele>2580.0</ele>
        <time>2019-11-30T13:09:50Z</time>
      </trkpt>
      <trkpt lat="42.586120" lon="1.852525">
        <ele>2581.2</ele>
        <time>2019-11-30T13:09:58Z</time>
      </trkpt>
      <trkpt lat="42.586029" lon="1.852485">
        <ele>2581.2</ele>
        <time>2019-11-30T13:10:07Z</time>
      </trkpt>
      <trkpt lat="42.585942" lon="1.852473">
        <ele>2582.1</ele>
        <time>2019-11-30T13:10:17Z</time>
      </trkpt>
      <trkpt lat="42.585853" lon="1.852454">
        <ele>2577.3</ele>
        <time>2019-11-30T13:10:25Z</time>
      </trkpt>
      <trkpt lat="42.585757" lon="1.852457">
        <ele>2577.3</ele>
        <time>2019-11-30T13:10:33Z</time>
      </trkpt>
      <trkpt lat="42.585660" lon="1.852430">
        <ele>2577.4</ele>
        <time>2019-11-30T13:10:41Z</time>
      </trkpt>
      <trkpt lat="42.585568" lon="1.852403">
        <ele>2577.4</ele>
        <time>2019-11-30T13:10:49Z</time>
      </trkpt>
      <trkpt lat="42.585482" lon="1.852397">
        <ele>2579.8</ele>
        <time>2019-11-30T13:10:57Z</time>
      </trkpt>
      <trkpt lat="42.585391" lon="1.852361">
        <ele>2579.8</ele>
        <time>2019-11-30T13:11:07Z</time>
      </trkpt>
      <trkpt lat="42.585317" lon="1.852291">
        <ele>2579.8</ele>
        <time>2019-11-30T13:11:17Z</time>
      </trkpt>
      <trkpt lat="42.585242" lon="1.852215">
        <ele>2582.3</ele>
        <time>2019-11-30T13:11:32Z</time>
      </trkpt>
      <trkpt lat="42.585180" lon="1.852124">
        <ele>2584.3</ele>
        <time>2019-11-30T13:11:48Z</time>
      </trkpt>
      <trkpt lat="42.585147" lon="1.852012">
        <ele>2585.1</ele>
        <time>2019-11-30T13:12:04Z</time>
      </trkpt>
      <trkpt lat="42.585093" lon="1.851915">
        <ele>2588.1</ele>
        <time>2019-11-30T13:12:21Z</time>
      </trkpt>
      <trkpt lat="42.585080" lon="1.851805">
        <ele>2589.9</ele>
        <time>2019-11-30T13:12:38Z</time>
      </trkpt>
      <trkpt lat="42.585033" lon="1.851696">
        <ele>2591.6</ele>
        <time>2019-11-30T13:12:52Z</time>
      </trkpt>
      <trkpt lat="42.584990" lon="1.851589">
        <ele>2593.5</ele>
        <time>2019-11-30T13:13:06Z</time>
      </trkpt>
      <trkpt lat="42.584917" lon="1.851529">
        <ele>2596.3</ele>
        <time>2019-11-30T13:13:19Z</time>
      </trkpt>
      <trkpt lat="42.584839" lon="1.851463">
        <ele>2596.1</ele>
        <time>2019-11-30T13:13:31Z</time>
      </trkpt>
      <trkpt lat="42.584753" lon="1.851422">
        <ele>2597.0</ele>
        <time>2019-11-30T13:13:44Z</time>
      </trkpt>
      <trkpt lat="42.584658" lon="1.851430">
        <ele>2598.9</ele>
        <time>2019-11-30T13:13:57Z</time>
      </trkpt>
      <trkpt lat="42.584604" lon="1.851408">
        <ele>2599.6</ele>
        <time>2019-11-30T13:15:41Z</time>
      </trkpt>
      <trkpt lat="42.584498" lon="1.851445">
        <ele>2597.5</ele>
        <time>2019-11-30T13:18:15Z</time>
      </trkpt>
      <trkpt lat="42.584452" lon="1.851562">
        <ele>2597.4</ele>
        <time>2019-11-30T13:18:24Z</time>
      </trkpt>
      <trkpt lat="42.584393" lon="1.851662">
        <ele>2593.9</ele>
        <time>2019-11-30T13:18:32Z</time>
      </trkpt>
      <trkpt lat="42.584322" lon="1.851756">
        <ele>2591.9</ele>
        <time>2019-11-30T13:18:41Z</time>
      </trkpt>
      <trkpt lat="42.584253" lon="1.851840">
        <ele>2589.9</ele>
        <time>2019-11-30T13:18:52Z</time>
      </trkpt>
      <trkpt lat="42.584188" lon="1.851937">
        <ele>2588.7</ele>
        <time>2019-11-30T13:19:02Z</time>
      </trkpt>
      <trkpt lat="42.584116" lon="1.852019">
        <ele>2585.3</ele>
        <time>2019-11-30T13:19:11Z</time>
      </trkpt>
      <trkpt lat="42.584043" lon="1.852105">
        <ele>2582.4</ele>
        <time>2019-11-30T13:19:21Z</time>
      </trkpt>
      <trkpt lat="42.583980" lon="1.852202">
        <ele>2580.1</ele>
        <time>2019-11-30T13:19:30Z</time>
      </trkpt>
      <trkpt lat="42.583905" lon="1.852269">
        <ele>2578.4</ele>
        <time>2019-11-30T13:19:38Z</time>
      </trkpt>
      <trkpt lat="42.583815" lon="1.852305">
        <ele>2576.3</ele>
        <time>2019-11-30T13:19:46Z</time>
      </trkpt>
      <trkpt lat="42.583735" lon="1.852360">
        <ele>2576.4</ele>
        <time>2019-11-30T13:19:54Z</time>
      </trkpt>
      <trkpt lat="42.583655" lon="1.852435">
        <ele>2575.5</ele>
        <time>2019-11-30T13:20:04Z</time>
      </trkpt>
      <trkpt lat="42.583615" lon="1.852556">
        <ele>2572.9</ele>
        <time>2019-11-30T13:20:14Z</time>
      </trkpt>
      <trkpt lat="42.583565" lon="1.852655">
        <ele>2570.3</ele>
        <time>2019-11-30T13:20:24Z</time>
      </trkpt>
      <trkpt lat="42.583476" lon="1.852707">
        <ele>2568.5</ele>
        <time>2019-11-30T13:20:34Z</time>
      </trkpt>
      <trkpt lat="42.583391" lon="1.852745">
        <ele>2566.8</ele>
        <time>2019-11-30T13:20:45Z</time>
      </trkpt>
      <trkpt lat="42.583315" lon="1.852809">
        <ele>2564.0</ele>
        <time>2019-11-30T13:20:57Z</time>
      </trkpt>
      <trkpt lat="42.583237" lon="1.852867">
        <ele>2559.6</ele>
        <time>2019-11-30T13:21:09Z</time>
      </trkpt>
      <trkpt lat="42.583144" lon="1.852863">
        <ele>2556.0</ele>
        <time>2019-11-30T13:21:20Z</time>
      </trkpt>
      <trkpt lat="42.583046" lon="1.852889">
        <ele>2554.9</ele>
        <time>2019-11-30T13:21:31Z</time>
      </trkpt>
      <trkpt lat="42.582967" lon="1.852939">
        <ele>2554.9</ele>
        <time>2019-11-30T13:21:41Z</time>
      </trkpt>
      <trkpt lat="42.582883" lon="1.852962">
        <ele>2553.0</ele>
        <time>2019-11-30T13:22:14Z</time>
      </trkpt>
      <trkpt lat="42.582788" lon="1.852988">
        <ele>2545.8</ele>
        <time>2019-11-30T13:22:39Z</time>
      </trkpt>
      <trkpt lat="42.582695" lon="1.852975">
        <ele>2538.5</ele>
        <time>2019-11-30T13:22:50Z</time>
      </trkpt>
      <trkpt lat="42.582623" lon="1.852892">
        <ele>2532.6</ele>
        <time>2019-11-30T13:23:01Z</time>
      </trkpt>
      <trkpt lat="42.582534" lon="1.852853">
        <ele>2527.8</ele>
        <time>2019-11-30T13:23:13Z</time>
      </trkpt>
      <trkpt lat="42.582448" lon="1.852790">
        <ele>2522.9</ele>
        <time>2019-11-30T13:23:24Z</time>
      </trkpt>
      <trkpt lat="42.582359" lon="1.852733">
        <ele>2521.2</ele>
        <time>2019-11-30T13:23:35Z</time>
      </trkpt>
      <trkpt lat="42.582269" lon="1.852706">
        <ele>2518.2</ele>
        <time>2019-11-30T13:23:46Z</time>
      </trkpt>
      <trkpt lat="42.582188" lon="1.852636">
        <ele>2515.0</ele>
        <time>2019-11-30T13:25:17Z</time>
      </trkpt>
      <trkpt lat="42.582131" lon="1.852536">
        <ele>2513.3</ele>
        <time>2019-11-30T13:25:26Z</time>
      </trkpt>
      <trkpt lat="42.582079" lon="1.852435">
        <ele>2510.5</ele>
        <time>2019-11-30T13:25:36Z</time>
      </trkpt>
      <trkpt lat="42.582037" lon="1.852308">
        <ele>2508.9</ele>
        <time>2019-11-30T13:25:46Z</time>
      </trkpt>
      <trkpt lat="42.582000" lon="1.852191">
        <ele>2508.0</ele>
        <time>2019-11-30T13:25:56Z</time>
      </trkpt>
      <trkpt lat="42.581943" lon="1.852099">
        <ele>2506.1</ele>
        <time>2019-11-30T13:26:08Z</time>
      </trkpt>
      <trkpt lat="42.581889" lon="1.851993">
        <ele>2504.3</ele>
        <time>2019-11-30T13:26:20Z</time>
      </trkpt>
      <trkpt lat="42.581852" lon="1.851884">
        <ele>2503.5</ele>
        <time>2019-11-30T13:26:32Z</time>
      </trkpt>
      <trkpt lat="42.581801" lon="1.851780">
        <ele>2503.5</ele>
        <time>2019-11-30T13:26:49Z</time>
      </trkpt>
      <trkpt lat="42.581757" lon="1.851711">
        <ele>2502.6</ele>
        <time>2019-11-30T13:28:14Z</time>
      </trkpt>
      <trkpt lat="42.581709" lon="1.851596">
        <ele>2500.9</ele>
        <time>2019-11-30T13:28:25Z</time>
      </trkpt>
      <trkpt lat="42.581666" lon="1.851516">
        <ele>2498.5</ele>
        <time>2019-11-30T13:28:51Z</time>
      </trkpt>
      <trkpt lat="42.581597" lon="1.851416">
        <ele>2496.9</ele>
        <time>2019-11-30T13:29:01Z</time>
      </trkpt>
      <trkpt lat="42.581568" lon="1.851302">
        <ele>2495.8</ele>
        <time>2019-11-30T13:29:10Z</time>
      </trkpt>
      <trkpt lat="42.581526" lon="1.851193">
        <ele>2493.9</ele>
        <time>2019-11-30T13:29:20Z</time>
      </trkpt>
      <trkpt lat="42.581507" lon="1.851068">
        <ele>2492.3</ele>
        <time>2019-11-30T13:29:29Z</time>
      </trkpt>
      <trkpt lat="42.581457" lon="1.850965">
        <ele>2491.4</ele>
        <time>2019-11-30T13:29:39Z</time>
      </trkpt>
      <trkpt lat="42.581424" lon="1.850859">
        <ele>2490.4</ele>
        <time>2019-11-30T13:29:50Z</time>
      </trkpt>
      <trkpt lat="42.581393" lon="1.850735">
        <ele>2489.4</ele>
        <time>2019-11-30T13:30:00Z</time>
      </trkpt>
      <trkpt lat="42.581352" lon="1.850634">
        <ele>2488.6</ele>
        <time>2019-11-30T13:30:11Z</time>
      </trkpt>
      <trkpt lat="42.581322" lon="1.850518">
        <ele>2487.6</ele>
        <time>2019-11-30T13:30:22Z</time>
      </trkpt>
      <trkpt lat="42.581312" lon="1.850383">
        <ele>2485.8</ele>
        <time>2019-11-30T13:30:33Z</time>
      </trkpt>
      <trkpt lat="42.581309" lon="1.850250">
        <ele>2483.2</ele>
        <time>2019-11-30T13:30:44Z</time>
      </trkpt>
      <trkpt lat="42.581310" lon="1.850140">
        <ele>2479.8</ele>
        <time>2019-11-30T13:30:55Z</time>
      </trkpt>
      <trkpt lat="42.581296" lon="1.850020">
        <ele>2476.5</ele>
        <time>2019-11-30T13:31:06Z</time>
      </trkpt>
      <trkpt lat="42.581254" lon="1.849914">
        <ele>2474.2</ele>
        <time>2019-11-30T13:31:17Z</time>
      </trkpt>
      <trkpt lat="42.581188" lon="1.849819">
        <ele>2467.0</ele>
        <time>2019-11-30T13:31:28Z</time>
      </trkpt>
      <trkpt lat="42.581191" lon="1.849806">
        <ele>2470.5</ele>
        <time>2019-11-30T13:32:21Z</time>
      </trkpt>
      <trkpt lat="42.581163" lon="1.849842">
        <ele>2469.5</ele>
        <time>2019-11-30T13:33:30Z</time>
      </trkpt>
      <trkpt lat="42.581129" lon="1.849717">
        <ele>2469.4</ele>
        <time>2019-11-30T13:33:43Z</time>
      </trkpt>
      <trkpt lat="42.581105" lon="1.849608">
        <ele>2469.3</ele>
        <time>2019-11-30T13:33:54Z</time>
      </trkpt>
      <trkpt lat="42.581144" lon="1.849484">
        <ele>2464.4</ele>
        <time>2019-11-30T13:34:04Z</time>
      </trkpt>
      <trkpt lat="42.581180" lon="1.849359">
        <ele>2460.1</ele>
        <time>2019-11-30T13:34:16Z</time>
      </trkpt>
      <trkpt lat="42.581210" lon="1.849254">
        <ele>2455.2</ele>
        <time>2019-11-30T13:34:29Z</time>
      </trkpt>
      <trkpt lat="42.581256" lon="1.849150">
        <ele>2449.9</ele>
        <time>2019-11-30T13:34:40Z</time>
      </trkpt>
      <trkpt lat="42.581292" lon="1.849057">
        <ele>2446.2</ele>
        <time>2019-11-30T13:34:53Z</time>
      </trkpt>
      <trkpt lat="42.581327" lon="1.848953">
        <ele>2441.4</ele>
        <time>2019-11-30T13:35:05Z</time>
      </trkpt>
      <trkpt lat="42.581347" lon="1.848821">
        <ele>2437.3</ele>
        <time>2019-11-30T13:35:16Z</time>
      </trkpt>
      <trkpt lat="42.581335" lon="1.848703">
        <ele>2435.7</ele>
        <time>2019-11-30T13:35:32Z</time>
      </trkpt>
      <trkpt lat="42.581309" lon="1.848578">
        <ele>2433.9</ele>
        <time>2019-11-30T13:35:42Z</time>
      </trkpt>
      <trkpt lat="42.581291" lon="1.848433">
        <ele>2432.9</ele>
        <time>2019-11-30T13:35:51Z</time>
      </trkpt>
      <trkpt lat="42.581265" lon="1.848307">
        <ele>2432.9</ele>
        <time>2019-11-30T13:36:01Z</time>
      </trkpt>
      <trkpt lat="42.581228" lon="1.848202">
        <ele>2431.1</ele>
        <time>2019-11-30T13:36:18Z</time>
      </trkpt>
      <trkpt lat="42.581215" lon="1.848074">
        <ele>2431.0</ele>
        <time>2019-11-30T13:36:29Z</time>
      </trkpt>
      <trkpt lat="42.581186" lon="1.847942">
        <ele>2431.0</ele>
        <time>2019-11-30T13:36:39Z</time>
      </trkpt>
      <trkpt lat="42.581150" lon="1.847816">
        <ele>2430.0</ele>
        <time>2019-11-30T13:36:49Z</time>
      </trkpt>
      <trkpt lat="42.581113" lon="1.847713">
        <ele>2428.2</ele>
        <time>2019-11-30T13:37:11Z</time>
      </trkpt>
      <trkpt lat="42.581079" lon="1.847588">
        <ele>2428.2</ele>
        <time>2019-11-30T13:37:20Z</time>
      </trkpt>
      <trkpt lat="42.581012" lon="1.847489">
        <ele>2428.1</ele>
        <time>2019-11-30T13:37:30Z</time>
      </trkpt>
      <trkpt lat="42.580958" lon="1.847390">
        <ele>2427.3</ele>
        <time>2019-11-30T13:37:38Z</time>
      </trkpt>
      <trkpt lat="42.580887" lon="1.847304">
        <ele>2426.2</ele>
        <time>2019-11-30T13:37:47Z</time>
      </trkpt>
      <trkpt lat="42.580837" lon="1.847212">
        <ele>2426.1</ele>
        <time>2019-11-30T13:37:56Z</time>
      </trkpt>
      <trkpt lat="42.580786" lon="1.847095">
        <ele>2425.4</ele>
        <time>2019-11-30T13:38:07Z</time>
      </trkpt>
      <trkpt lat="42.580748" lon="1.846973">
        <ele>2425.4</ele>
        <time>2019-11-30T13:38:17Z</time>
      </trkpt>
      <trkpt lat="42.580719" lon="1.846859">
        <ele>2423.6</ele>
        <time>2019-11-30T13:38:27Z</time>
      </trkpt>
      <trkpt lat="42.580712" lon="1.846772">
        <ele>2422.8</ele>
        <time>2019-11-30T13:38:55Z</time>
      </trkpt>
      <trkpt lat="42.580671" lon="1.846758">
        <ele>2421.9</ele>
        <time>2019-11-30T13:39:52Z</time>
      </trkpt>
      <trkpt lat="42.580661" lon="1.846633">
        <ele>2421.8</ele>
        <time>2019-11-30T13:40:02Z</time>
      </trkpt>
      <trkpt lat="42.580651" lon="1.846502">
        <ele>2421.7</ele>
        <time>2019-11-30T13:40:12Z</time>
      </trkpt>
      <trkpt lat="42.580629" lon="1.846373">
        <ele>2420.8</ele>
        <time>2019-11-30T13:40:25Z</time>
      </trkpt>
      <trkpt lat="42.580600" lon="1.846303">
        <ele>2419.9</ele>
        <time>2019-11-30T13:41:05Z</time>
      </trkpt>
      <trkpt lat="42.580583" lon="1.846193">
        <ele>2419.9</ele>
        <time>2019-11-30T13:41:19Z</time>
      </trkpt>
      <trkpt lat="42.580568" lon="1.846065">
        <ele>2419.8</ele>
        <time>2019-11-30T13:41:28Z</time>
      </trkpt>
      <trkpt lat="42.580528" lon="1.845953">
        <ele>2416.9</ele>
        <time>2019-11-30T13:41:37Z</time>
      </trkpt>
      <trkpt lat="42.580479" lon="1.845848">
        <ele>2416.1</ele>
        <time>2019-11-30T13:41:49Z</time>
      </trkpt>
      <trkpt lat="42.580408" lon="1.845752">
        <ele>2416.1</ele>
        <time>2019-11-30T13:42:07Z</time>
      </trkpt>
      <trkpt lat="42.580359" lon="1.845658">
        <ele>2414.3</ele>
        <time>2019-11-30T13:42:16Z</time>
      </trkpt>
      <trkpt lat="42.580312" lon="1.845554">
        <ele>2413.4</ele>
        <time>2019-11-30T13:42:24Z</time>
      </trkpt>
      <trkpt lat="42.580257" lon="1.845449">
        <ele>2411.0</ele>
        <time>2019-11-30T13:42:34Z</time>
      </trkpt>
      <trkpt lat="42.580203" lon="1.845344">
        <ele>2409.3</ele>
        <time>2019-11-30T13:42:44Z</time>
      </trkpt>
      <trkpt lat="42.580140" lon="1.845248">
        <ele>2408.0</ele>
        <time>2019-11-30T13:42:55Z</time>
      </trkpt>
      <trkpt lat="42.580096" lon="1.845144">
        <ele>2408.3</ele>
        <time>2019-11-30T13:43:15Z</time>
      </trkpt>
      <trkpt lat="42.580056" lon="1.845048">
        <ele>2405.9</ele>
        <time>2019-11-30T13:43:26Z</time>
      </trkpt>
      <trkpt lat="42.580023" lon="1.844928">
        <ele>2404.1</ele>
        <time>2019-11-30T13:43:37Z</time>
      </trkpt>
      <trkpt lat="42.580025" lon="1.844787">
        <ele>2402.1</ele>
        <time>2019-11-30T13:43:46Z</time>
      </trkpt>
      <trkpt lat="42.580041" lon="1.844662">
        <ele>2400.0</ele>
        <time>2019-11-30T13:43:55Z</time>
      </trkpt>
      <trkpt lat="42.580077" lon="1.844536">
        <ele>2397.1</ele>
        <time>2019-11-30T13:44:04Z</time>
      </trkpt>
      <trkpt lat="42.580115" lon="1.844410">
        <ele>2392.6</ele>
        <time>2019-11-30T13:44:15Z</time>
      </trkpt>
      <trkpt lat="42.580139" lon="1.844302">
        <ele>2388.9</ele>
        <time>2019-11-30T13:44:27Z</time>
      </trkpt>
      <trkpt lat="42.580160" lon="1.844180">
        <ele>2386.0</ele>
        <time>2019-11-30T13:44:37Z</time>
      </trkpt>
      <trkpt lat="42.580146" lon="1.844057">
        <ele>2384.4</ele>
        <time>2019-11-30T13:44:46Z</time>
      </trkpt>
      <trkpt lat="42.580144" lon="1.843930">
        <ele>2382.5</ele>
        <time>2019-11-30T13:44:56Z</time>
      </trkpt>
      <trkpt lat="42.580135" lon="1.843799">
        <ele>2380.8</ele>
        <time>2019-11-30T13:45:06Z</time>
      </trkpt>
      <trkpt lat="42.580114" lon="1.843673">
        <ele>2379.2</ele>
        <time>2019-11-30T13:45:15Z</time>
      </trkpt>
      <trkpt lat="42.580100" lon="1.843533">
        <ele>2377.6</ele>
        <time>2019-11-30T13:45:25Z</time>
      </trkpt>
      <trkpt lat="42.580085" lon="1.843411">
        <ele>2375.9</ele>
        <time>2019-11-30T13:45:34Z</time>
      </trkpt>
      <trkpt lat="42.580070" lon="1.843283">
        <ele>2374.1</ele>
        <time>2019-11-30T13:45:43Z</time>
      </trkpt>
      <trkpt lat="42.580069" lon="1.843160">
        <ele>2370.3</ele>
        <time>2019-11-30T13:45:54Z</time>
      </trkpt>
      <trkpt lat="42.580046" lon="1.843041">
        <ele>2367.7</ele>
        <time>2019-11-30T13:46:04Z</time>
      </trkpt>
      <trkpt lat="42.580037" lon="1.842923">
        <ele>2365.8</ele>
        <time>2019-11-30T13:46:13Z</time>
      </trkpt>
      <trkpt lat="42.580045" lon="1.842797">
        <ele>2364.0</ele>
        <time>2019-11-30T13:46:23Z</time>
      </trkpt>
      <trkpt lat="42.580032" lon="1.842669">
        <ele>2361.1</ele>
        <time>2019-11-30T13:46:33Z</time>
      </trkpt>
      <trkpt lat="42.580024" lon="1.842545">
        <ele>2359.6</ele>
        <time>2019-11-30T13:46:42Z</time>
      </trkpt>
      <trkpt lat="42.580013" lon="1.842408">
        <ele>2356.6</ele>
        <time>2019-11-30T13:46:53Z</time>
      </trkpt>
      <trkpt lat="42.579996" lon="1.842310">
        <ele>2354.2</ele>
        <time>2019-11-30T13:47:09Z</time>
      </trkpt>
      <trkpt lat="42.580049" lon="1.842216">
        <ele>2351.6</ele>
        <time>2019-11-30T13:47:46Z</time>
      </trkpt>
      <trkpt lat="42.580004" lon="1.842095">
        <ele>2350.7</ele>
        <time>2019-11-30T13:48:46Z</time>
      </trkpt>
      <trkpt lat="42.579939" lon="1.842011">
        <ele>2347.8</ele>
        <time>2019-11-30T13:49:59Z</time>
      </trkpt>
      <trkpt lat="42.579894" lon="1.841922">
        <ele>2346.8</ele>
        <time>2019-11-30T13:50:10Z</time>
      </trkpt>
      <trkpt lat="42.579837" lon="1.841831">
        <ele>2344.9</ele>
        <time>2019-11-30T13:50:21Z</time>
      </trkpt>
      <trkpt lat="42.579788" lon="1.841737">
        <ele>2344.0</ele>
        <time>2019-11-30T13:50:35Z</time>
      </trkpt>
      <trkpt lat="42.579737" lon="1.841642">
        <ele>2343.0</ele>
        <time>2019-11-30T13:50:50Z</time>
      </trkpt>
      <trkpt lat="42.579663" lon="1.841565">
        <ele>2343.0</ele>
        <time>2019-11-30T13:51:07Z</time>
      </trkpt>
      <trkpt lat="42.579600" lon="1.841480">
        <ele>2342.9</ele>
        <time>2019-11-30T13:51:19Z</time>
      </trkpt>
      <trkpt lat="42.579615" lon="1.841382">
        <ele>2339.1</ele>
        <time>2019-11-30T13:51:31Z</time>
      </trkpt>
      <trkpt lat="42.579581" lon="1.841269">
        <ele>2337.1</ele>
        <time>2019-11-30T13:51:40Z</time>
      </trkpt>
      <trkpt lat="42.579555" lon="1.841152">
        <ele>2333.8</ele>
        <time>2019-11-30T13:51:50Z</time>
      </trkpt>
      <trkpt lat="42.579542" lon="1.841029">
        <ele>2329.8</ele>
        <time>2019-11-30T13:52:00Z</time>
      </trkpt>
      <trkpt lat="42.579495" lon="1.840929">
        <ele>2327.1</ele>
        <time>2019-11-30T13:52:10Z</time>
      </trkpt>
      <trkpt lat="42.579467" lon="1.840813">
        <ele>2323.3</ele>
        <time>2019-11-30T13:52:21Z</time>
      </trkpt>
      <trkpt lat="42.579443" lon="1.840695">
        <ele>2319.2</ele>
        <time>2019-11-30T13:52:32Z</time>
      </trkpt>
      <trkpt lat="42.579418" lon="1.840563">
        <ele>2316.2</ele>
        <time>2019-11-30T13:52:42Z</time>
      </trkpt>
      <trkpt lat="42.579397" lon="1.840457">
        <ele>2312.5</ele>
        <time>2019-11-30T13:52:53Z</time>
      </trkpt>
      <trkpt lat="42.579406" lon="1.840346">
        <ele>2310.1</ele>
        <time>2019-11-30T13:53:04Z</time>
      </trkpt>
      <trkpt lat="42.579399" lon="1.840230">
        <ele>2307.2</ele>
        <time>2019-11-30T13:53:17Z</time>
      </trkpt>
      <trkpt lat="42.579354" lon="1.840114">
        <ele>2304.1</ele>
        <time>2019-11-30T13:53:29Z</time>
      </trkpt>
      <trkpt lat="42.579339" lon="1.839991">
        <ele>2300.4</ele>
        <time>2019-11-30T13:53:40Z</time>
      </trkpt>
      <trkpt lat="42.579324" lon="1.839852">
        <ele>2296.9</ele>
        <time>2019-11-30T13:53:51Z</time>
      </trkpt>
      <trkpt lat="42.579286" lon="1.839735">
        <ele>2294.4</ele>
        <time>2019-11-30T13:54:02Z</time>
      </trkpt>
      <trkpt lat="42.579243" lon="1.839612">
        <ele>2291.4</ele>
        <time>2019-11-30T13:54:13Z</time>
      </trkpt>
      <trkpt lat="42.579193" lon="1.839491">
        <ele>2288.7</ele>
        <time>2019-11-30T13:54:24Z</time>
      </trkpt>
      <trkpt lat="42.579168" lon="1.839377">
        <ele>2286.1</ele>
        <time>2019-11-30T13:54:34Z</time>
      </trkpt>
      <trkpt lat="42.579145" lon="1.839260">
        <ele>2284.4</ele>
        <time>2019-11-30T13:54:45Z</time>
      </trkpt>
      <trkpt lat="42.579139" lon="1.839142">
        <ele>2282.6</ele>
        <time>2019-11-30T13:54:55Z</time>
      </trkpt>
      <trkpt lat="42.579110" lon="1.839019">
        <ele>2279.9</ele>
        <time>2019-11-30T13:55:05Z</time>
      </trkpt>
      <trkpt lat="42.579075" lon="1.838896">
        <ele>2277.3</ele>
        <time>2019-11-30T13:55:15Z</time>
      </trkpt>
      <trkpt lat="42.579068" lon="1.838810">
        <ele>2274.7</ele>
        <time>2019-11-30T13:55:27Z</time>
      </trkpt>
      <trkpt lat="42.579044" lon="1.838720">
        <ele>2272.8</ele>
        <time>2019-11-30T13:56:38Z</time>
      </trkpt>
      <trkpt lat="42.579030" lon="1.838608">
        <ele>2270.1</ele>
        <time>2019-11-30T13:56:49Z</time>
      </trkpt>
      <trkpt lat="42.578984" lon="1.838497">
        <ele>2268.3</ele>
        <time>2019-11-30T13:57:00Z</time>
      </trkpt>
      <trkpt lat="42.578952" lon="1.838373">
        <ele>2264.6</ele>
        <time>2019-11-30T13:57:13Z</time>
      </trkpt>
      <trkpt lat="42.578916" lon="1.838247">
        <ele>2262.4</ele>
        <time>2019-11-30T13:57:26Z</time>
      </trkpt>
      <trkpt lat="42.578890" lon="1.838137">
        <ele>2259.0</ele>
        <time>2019-11-30T13:57:39Z</time>
      </trkpt>
      <trkpt lat="42.578850" lon="1.838028">
        <ele>2256.6</ele>
        <time>2019-11-30T13:57:51Z</time>
      </trkpt>
      <trkpt lat="42.578813" lon="1.837892">
        <ele>2253.6</ele>
        <time>2019-11-30T13:58:03Z</time>
      </trkpt>
      <trkpt lat="42.578789" lon="1.837777">
        <ele>2250.9</ele>
        <time>2019-11-30T13:58:15Z</time>
      </trkpt>
      <trkpt lat="42.578741" lon="1.837659">
        <ele>2248.3</ele>
        <time>2019-11-30T13:58:28Z</time>
      </trkpt>
      <trkpt lat="42.578713" lon="1.837552">
        <ele>2245.7</ele>
        <time>2019-11-30T13:58:40Z</time>
      </trkpt>
      <trkpt lat="42.578697" lon="1.837450">
        <ele>2243.8</ele>
        <time>2019-11-30T13:58:53Z</time>
      </trkpt>
      <trkpt lat="42.578666" lon="1.837321">
        <ele>2241.1</ele>
        <time>2019-11-30T13:59:10Z</time>
      </trkpt>
      <trkpt lat="42.578638" lon="1.837213">
        <ele>2238.6</ele>
        <time>2019-11-30T13:59:20Z</time>
      </trkpt>
      <trkpt lat="42.578609" lon="1.837102">
        <ele>2235.7</ele>
        <time>2019-11-30T13:59:33Z</time>
      </trkpt>
      <trkpt lat="42.578575" lon="1.837002">
        <ele>2233.0</ele>
        <time>2019-11-30T13:59:47Z</time>
      </trkpt>
      <trkpt lat="42.578533" lon="1.836895">
        <ele>2231.1</ele>
        <time>2019-11-30T13:59:56Z</time>
      </trkpt>
      <trkpt lat="42.578493" lon="1.836777">
        <ele>2229.4</ele>
        <time>2019-11-30T14:00:05Z</time>
      </trkpt>
      <trkpt lat="42.578448" lon="1.836636">
        <ele>2227.7</ele>
        <time>2019-11-30T14:00:14Z</time>
      </trkpt>
      <trkpt lat="42.578422" lon="1.836493">
        <ele>2225.8</ele>
        <time>2019-11-30T14:00:23Z</time>
      </trkpt>
      <trkpt lat="42.578418" lon="1.836368">
        <ele>2224.1</ele>
        <time>2019-11-30T14:00:31Z</time>
      </trkpt>
      <trkpt lat="42.578405" lon="1.836229">
        <ele>2222.4</ele>
        <time>2019-11-30T14:00:41Z</time>
      </trkpt>
      <trkpt lat="42.578420" lon="1.836111">
        <ele>2220.9</ele>
        <time>2019-11-30T14:00:51Z</time>
      </trkpt>
      <trkpt lat="42.578424" lon="1.836008">
        <ele>2219.9</ele>
        <time>2019-11-30T14:01:01Z</time>
      </trkpt>
      <trkpt lat="42.578415" lon="1.835872">
        <ele>2217.9</ele>
        <time>2019-11-30T14:01:12Z</time>
      </trkpt>
      <trkpt lat="42.578387" lon="1.835735">
        <ele>2216.2</ele>
        <time>2019-11-30T14:01:24Z</time>
      </trkpt>
      <trkpt lat="42.578339" lon="1.835619">
        <ele>2214.5</ele>
        <time>2019-11-30T14:01:33Z</time>
      </trkpt>
      <trkpt lat="42.578280" lon="1.835510">
        <ele>2213.6</ele>
        <time>2019-11-30T14:01:42Z</time>
      </trkpt>
      <trkpt lat="42.578254" lon="1.835392">
        <ele>2211.6</ele>
        <time>2019-11-30T14:01:51Z</time>
      </trkpt>
      <trkpt lat="42.578211" lon="1.835268">
        <ele>2210.5</ele>
        <time>2019-11-30T14:02:02Z</time>
      </trkpt>
      <trkpt lat="42.578148" lon="1.835153">
        <ele>2208.6</ele>
        <time>2019-11-30T14:02:13Z</time>
      </trkpt>
      <trkpt lat="42.578147" lon="1.835151">
        <ele>2205.6</ele>
        <time>2019-11-30T14:03:31Z</time>
      </trkpt>
      <trkpt lat="42.578178" lon="1.835168">
        <ele>2204.5</ele>
        <time>2019-11-30T14:07:00Z</time>
      </trkpt>
      <trkpt lat="42.578163" lon="1.835130">
        <ele>2205.4</ele>
        <time>2019-11-30T14:14:36Z</time>
      </trkpt>
      <trkpt lat="42.578083" lon="1.835054">
        <ele>2205.3</ele>
        <time>2019-11-30T14:14:55Z</time>
      </trkpt>
      <trkpt lat="42.578008" lon="1.834987">
        <ele>2201.9</ele>
        <time>2019-11-30T14:15:06Z</time>
      </trkpt>
      <trkpt lat="42.577966" lon="1.834878">
        <ele>2200.9</ele>
        <time>2019-11-30T14:15:16Z</time>
      </trkpt>
      <trkpt lat="42.577914" lon="1.834771">
        <ele>2198.3</ele>
        <time>2019-11-30T14:15:26Z</time>
      </trkpt>
      <trkpt lat="42.577867" lon="1.834685">
        <ele>2196.6</ele>
        <time>2019-11-30T14:15:40Z</time>
      </trkpt>
      <trkpt lat="42.577838" lon="1.834569">
        <ele>2194.9</ele>
        <time>2019-11-30T14:15:55Z</time>
      </trkpt>
      <trkpt lat="42.577782" lon="1.834486">
        <ele>2193.1</ele>
        <time>2019-11-30T14:16:06Z</time>
      </trkpt>
      <trkpt lat="42.577711" lon="1.834394">
        <ele>2191.1</ele>
        <time>2019-11-30T14:16:17Z</time>
      </trkpt>
      <trkpt lat="42.577650" lon="1.834310">
        <ele>2189.2</ele>
        <time>2019-11-30T14:16:27Z</time>
      </trkpt>
      <trkpt lat="42.577589" lon="1.834228">
        <ele>2187.5</ele>
        <time>2019-11-30T14:16:36Z</time>
      </trkpt>
      <trkpt lat="42.577516" lon="1.834141">
        <ele>2185.8</ele>
        <time>2019-11-30T14:16:46Z</time>
      </trkpt>
      <trkpt lat="42.577452" lon="1.834063">
        <ele>2183.2</ele>
        <time>2019-11-30T14:16:57Z</time>
      </trkpt>
      <trkpt lat="42.577367" lon="1.833971">
        <ele>2181.4</ele>
        <time>2019-11-30T14:17:07Z</time>
      </trkpt>
      <trkpt lat="42.577302" lon="1.833905">
        <ele>2179.6</ele>
        <time>2019-11-30T14:17:16Z</time>
      </trkpt>
      <trkpt lat="42.577229" lon="1.833801">
        <ele>2178.8</ele>
        <time>2019-11-30T14:17:25Z</time>
      </trkpt>
      <trkpt lat="42.577154" lon="1.833711">
        <ele>2177.0</ele>
        <time>2019-11-30T14:17:33Z</time>
      </trkpt>
      <trkpt lat="42.577076" lon="1.833616">
        <ele>2175.2</ele>
        <time>2019-11-30T14:17:42Z</time>
      </trkpt>
      <trkpt lat="42.577002" lon="1.833533">
        <ele>2175.2</ele>
        <time>2019-11-30T14:17:50Z</time>
      </trkpt>
      <trkpt lat="42.576932" lon="1.833444">
        <ele>2173.5</ele>
        <time>2019-11-30T14:17:58Z</time>
      </trkpt>
      <trkpt lat="42.576864" lon="1.833341">
        <ele>2172.6</ele>
        <time>2019-11-30T14:18:07Z</time>
      </trkpt>
      <trkpt lat="42.576790" lon="1.833265">
        <ele>2171.5</ele>
        <time>2019-11-30T14:18:16Z</time>
      </trkpt>
      <trkpt lat="42.576698" lon="1.833213">
        <ele>2169.9</ele>
        <time>2019-11-30T14:18:24Z</time>
      </trkpt>
      <trkpt lat="42.576624" lon="1.833137">
        <ele>2169.0</ele>
        <time>2019-11-30T14:18:32Z</time>
      </trkpt>
      <trkpt lat="42.576543" lon="1.833065">
        <ele>2168.2</ele>
        <time>2019-11-30T14:18:41Z</time>
      </trkpt>
      <trkpt lat="42.576469" lon="1.832994">
        <ele>2167.4</ele>
        <time>2019-11-30T14:18:49Z</time>
      </trkpt>
      <trkpt lat="42.576383" lon="1.832933">
        <ele>2166.4</ele>
        <time>2019-11-30T14:18:58Z</time>
      </trkpt>
      <trkpt lat="42.576300" lon="1.832874">
        <ele>2165.6</ele>
        <time>2019-11-30T14:19:07Z</time>
      </trkpt>
      <trkpt lat="42.576213" lon="1.832822">
        <ele>2163.9</ele>
        <time>2019-11-30T14:19:16Z</time>
      </trkpt>
      <trkpt lat="42.576131" lon="1.832772">
        <ele>2163.1</ele>
        <time>2019-11-30T14:19:24Z</time>
      </trkpt>
      <trkpt lat="42.576042" lon="1.832724">
        <ele>2161.3</ele>
        <time>2019-11-30T14:19:32Z</time>
      </trkpt>
      <trkpt lat="42.575951" lon="1.832679">
        <ele>2160.5</ele>
        <time>2019-11-30T14:19:41Z</time>
      </trkpt>
      <trkpt lat="42.575856" lon="1.832650">
        <ele>2158.7</ele>
        <time>2019-11-30T14:19:50Z</time>
      </trkpt>
      <trkpt lat="42.575761" lon="1.832615">
        <ele>2157.8</ele>
        <time>2019-11-30T14:19:58Z</time>
      </trkpt>
      <trkpt lat="42.575689" lon="1.832538">
        <ele>2156.9</ele>
        <time>2019-11-30T14:20:06Z</time>
      </trkpt>
      <trkpt lat="42.575664" lon="1.832417">
        <ele>2155.2</ele>
        <time>2019-11-30T14:20:15Z</time>
      </trkpt>
      <trkpt lat="42.575651" lon="1.832292">
        <ele>2154.4</ele>
        <time>2019-11-30T14:20:23Z</time>
      </trkpt>
      <trkpt lat="42.575649" lon="1.832159">
        <ele>2153.6</ele>
        <time>2019-11-30T14:20:31Z</time>
      </trkpt>
      <trkpt lat="42.575663" lon="1.832030">
        <ele>2152.0</ele>
        <time>2019-11-30T14:20:40Z</time>
      </trkpt>
      <trkpt lat="42.575683" lon="1.831899">
        <ele>2151.2</ele>
        <time>2019-11-30T14:20:51Z</time>
      </trkpt>
      <trkpt lat="42.575666" lon="1.831761">
        <ele>2150.3</ele>
        <time>2019-11-30T14:21:01Z</time>
      </trkpt>
      <trkpt lat="42.575623" lon="1.831632">
        <ele>2149.4</ele>
        <time>2019-11-30T14:21:12Z</time>
      </trkpt>
      <trkpt lat="42.575569" lon="1.831537">
        <ele>2147.7</ele>
        <time>2019-11-30T14:21:52Z</time>
      </trkpt>
      <trkpt lat="42.575486" lon="1.831476">
        <ele>2146.8</ele>
        <time>2019-11-30T14:22:02Z</time>
      </trkpt>
      <trkpt lat="42.575405" lon="1.831412">
        <ele>2144.9</ele>
        <time>2019-11-30T14:22:11Z</time>
      </trkpt>
      <trkpt lat="42.575325" lon="1.831326">
        <ele>2143.3</ele>
        <time>2019-11-30T14:22:21Z</time>
      </trkpt>
      <trkpt lat="42.575274" lon="1.831208">
        <ele>2142.4</ele>
        <time>2019-11-30T14:22:31Z</time>
      </trkpt>
      <trkpt lat="42.575243" lon="1.831100">
        <ele>2141.5</ele>
        <time>2019-11-30T14:22:57Z</time>
      </trkpt>
      <trkpt lat="42.575199" lon="1.830988">
        <ele>2140.6</ele>
        <time>2019-11-30T14:23:07Z</time>
      </trkpt>
      <trkpt lat="42.575182" lon="1.830866">
        <ele>2140.6</ele>
        <time>2019-11-30T14:23:15Z</time>
      </trkpt>
      <trkpt lat="42.575182" lon="1.830734">
        <ele>2139.8</ele>
        <time>2019-11-30T14:23:24Z</time>
      </trkpt>
      <trkpt lat="42.575171" lon="1.830604">
        <ele>2139.8</ele>
        <time>2019-11-30T14:23:34Z</time>
      </trkpt>
      <trkpt lat="42.575164" lon="1.830470">
        <ele>2139.8</ele>
        <time>2019-11-30T14:23:44Z</time>
      </trkpt>
      <trkpt lat="42.575174" lon="1.830336">
        <ele>2139.8</ele>
        <time>2019-11-30T14:23:53Z</time>
      </trkpt>
      <trkpt lat="42.575182" lon="1.830206">
        <ele>2139.8</ele>
        <time>2019-11-30T14:24:03Z</time>
      </trkpt>
      <trkpt lat="42.575210" lon="1.830082">
        <ele>2139.8</ele>
        <time>2019-11-30T14:24:13Z</time>
      </trkpt>
      <trkpt lat="42.575235" lon="1.829961">
        <ele>2139.8</ele>
        <time>2019-11-30T14:24:23Z</time>
      </trkpt>
      <trkpt lat="42.575245" lon="1.829832">
        <ele>2139.8</ele>
        <time>2019-11-30T14:24:33Z</time>
      </trkpt>
      <trkpt lat="42.575261" lon="1.829708">
        <ele>2139.8</ele>
        <time>2019-11-30T14:24:42Z</time>
      </trkpt>
      <trkpt lat="42.575273" lon="1.829573">
        <ele>2139.8</ele>
        <time>2019-11-30T14:24:52Z</time>
      </trkpt>
      <trkpt lat="42.575284" lon="1.829457">
        <ele>2139.7</ele>
        <time>2019-11-30T14:25:01Z</time>
      </trkpt>
      <trkpt lat="42.575280" lon="1.829325">
        <ele>2138.9</ele>
        <time>2019-11-30T14:25:10Z</time>
      </trkpt>
      <trkpt lat="42.575279" lon="1.829197">
        <ele>2138.9</ele>
        <time>2019-11-30T14:25:20Z</time>
      </trkpt>
      <trkpt lat="42.575259" lon="1.829065">
        <ele>2137.8</ele>
        <time>2019-11-30T14:25:30Z</time>
      </trkpt>
      <trkpt lat="42.575249" lon="1.828922">
        <ele>2137.8</ele>
        <time>2019-11-30T14:25:40Z</time>
      </trkpt>
      <trkpt lat="42.575227" lon="1.828792">
        <ele>2136.9</ele>
        <time>2019-11-30T14:26:01Z</time>
      </trkpt>
      <trkpt lat="42.575214" lon="1.828662">
        <ele>2136.9</ele>
        <time>2019-11-30T14:26:10Z</time>
      </trkpt>
      <trkpt lat="42.575199" lon="1.828527">
        <ele>2136.1</ele>
        <time>2019-11-30T14:26:20Z</time>
      </trkpt>
      <trkpt lat="42.575169" lon="1.828382">
        <ele>2134.4</ele>
        <time>2019-11-30T14:26:30Z</time>
      </trkpt>
      <trkpt lat="42.575147" lon="1.828265">
        <ele>2134.4</ele>
        <time>2019-11-30T14:26:40Z</time>
      </trkpt>
      <trkpt lat="42.575137" lon="1.828134">
        <ele>2133.5</ele>
        <time>2019-11-30T14:26:50Z</time>
      </trkpt>
      <trkpt lat="42.575124" lon="1.828005">
        <ele>2134.2</ele>
        <time>2019-11-30T14:27:00Z</time>
      </trkpt>
      <trkpt lat="42.575092" lon="1.827964">
        <ele>2132.9</ele>
        <time>2019-11-30T14:27:50Z</time>
      </trkpt>
      <trkpt lat="42.575101" lon="1.827824">
        <ele>2132.8</ele>
        <time>2019-11-30T14:28:33Z</time>
      </trkpt>
      <trkpt lat="42.575074" lon="1.827691">
        <ele>2132.8</ele>
        <time>2019-11-30T14:28:44Z</time>
      </trkpt>
      <trkpt lat="42.575058" lon="1.827551">
        <ele>2132.8</ele>
        <time>2019-11-30T14:28:54Z</time>
      </trkpt>
      <trkpt lat="42.575036" lon="1.827412">
        <ele>2130.4</ele>
        <time>2019-11-30T14:29:04Z</time>
      </trkpt>
      <trkpt lat="42.574984" lon="1.827280">
        <ele>2128.7</ele>
        <time>2019-11-30T14:29:14Z</time>
      </trkpt>
      <trkpt lat="42.574922" lon="1.827172">
        <ele>2127.8</ele>
        <time>2019-11-30T14:29:27Z</time>
      </trkpt>
      <trkpt lat="42.574857" lon="1.827076">
        <ele>2126.1</ele>
        <time>2019-11-30T14:29:37Z</time>
      </trkpt>
      <trkpt lat="42.574772" lon="1.827009">
        <ele>2125.3</ele>
        <time>2019-11-30T14:29:47Z</time>
      </trkpt>
      <trkpt lat="42.574713" lon="1.826895">
        <ele>2123.4</ele>
        <time>2019-11-30T14:29:57Z</time>
      </trkpt>
      <trkpt lat="42.574645" lon="1.826782">
        <ele>2121.7</ele>
        <time>2019-11-30T14:30:07Z</time>
      </trkpt>
      <trkpt lat="42.574589" lon="1.826678">
        <ele>2119.8</ele>
        <time>2019-11-30T14:30:16Z</time>
      </trkpt>
      <trkpt lat="42.574527" lon="1.826586">
        <ele>2117.9</ele>
        <time>2019-11-30T14:30:25Z</time>
      </trkpt>
      <trkpt lat="42.574448" lon="1.826508">
        <ele>2116.1</ele>
        <time>2019-11-30T14:30:34Z</time>
      </trkpt>
      <trkpt lat="42.574388" lon="1.826407">
        <ele>2114.2</ele>
        <time>2019-11-30T14:30:42Z</time>
      </trkpt>
      <trkpt lat="42.574324" lon="1.826307">
        <ele>2112.5</ele>
        <time>2019-11-30T14:30:50Z</time>
      </trkpt>
      <trkpt lat="42.574261" lon="1.826196">
        <ele>2111.6</ele>
        <time>2019-11-30T14:30:59Z</time>
      </trkpt>
      <trkpt lat="42.574202" lon="1.826101">
        <ele>2109.6</ele>
        <time>2019-11-30T14:31:08Z</time>
      </trkpt>
      <trkpt lat="42.574142" lon="1.825999">
        <ele>2108.0</ele>
        <time>2019-11-30T14:31:17Z</time>
      </trkpt>
      <trkpt lat="42.574089" lon="1.825894">
        <ele>2107.1</ele>
        <time>2019-11-30T14:31:26Z</time>
      </trkpt>
      <trkpt lat="42.574051" lon="1.825765">
        <ele>2106.3</ele>
        <time>2019-11-30T14:31:36Z</time>
      </trkpt>
      <trkpt lat="42.574000" lon="1.825640">
        <ele>2104.6</ele>
        <time>2019-11-30T14:31:46Z</time>
      </trkpt>
      <trkpt lat="42.573964" lon="1.825509">
        <ele>2103.8</ele>
        <time>2019-11-30T14:31:55Z</time>
      </trkpt>
      <trkpt lat="42.573926" lon="1.825391">
        <ele>2102.1</ele>
        <time>2019-11-30T14:32:05Z</time>
      </trkpt>
      <trkpt lat="42.573880" lon="1.825280">
        <ele>2100.6</ele>
        <time>2019-11-30T14:32:14Z</time>
      </trkpt>
      <trkpt lat="42.573842" lon="1.825148">
        <ele>2099.8</ele>
        <time>2019-11-30T14:32:26Z</time>
      </trkpt>
      <trkpt lat="42.573798" lon="1.825023">
        <ele>2098.1</ele>
        <time>2019-11-30T14:32:39Z</time>
      </trkpt>
      <trkpt lat="42.573734" lon="1.824911">
        <ele>2096.4</ele>
        <time>2019-11-30T14:32:49Z</time>
      </trkpt>
      <trkpt lat="42.573693" lon="1.824798">
        <ele>2094.8</ele>
        <time>2019-11-30T14:32:58Z</time>
      </trkpt>
      <trkpt lat="42.573635" lon="1.824683">
        <ele>2093.9</ele>
        <time>2019-11-30T14:33:08Z</time>
      </trkpt>
      <trkpt lat="42.573594" lon="1.824563">
        <ele>2092.1</ele>
        <time>2019-11-30T14:33:23Z</time>
      </trkpt>
      <trkpt lat="42.573564" lon="1.824432">
        <ele>2091.3</ele>
        <time>2019-11-30T14:33:34Z</time>
      </trkpt>
      <trkpt lat="42.573530" lon="1.824278">
        <ele>2088.8</ele>
        <time>2019-11-30T14:33:44Z</time>
      </trkpt>
      <trkpt lat="42.573498" lon="1.824156">
        <ele>2087.8</ele>
        <time>2019-11-30T14:33:53Z</time>
      </trkpt>
      <trkpt lat="42.573483" lon="1.824006">
        <ele>2086.1</ele>
        <time>2019-11-30T14:34:03Z</time>
      </trkpt>
      <trkpt lat="42.573465" lon="1.823879">
        <ele>2084.3</ele>
        <time>2019-11-30T14:34:14Z</time>
      </trkpt>
      <trkpt lat="42.573443" lon="1.823758">
        <ele>2082.8</ele>
        <time>2019-11-30T14:34:23Z</time>
      </trkpt>
      <trkpt lat="42.573418" lon="1.823642">
        <ele>2081.9</ele>
        <time>2019-11-30T14:34:32Z</time>
      </trkpt>
      <trkpt lat="42.573389" lon="1.823510">
        <ele>2080.2</ele>
        <time>2019-11-30T14:34:43Z</time>
      </trkpt>
      <trkpt lat="42.573360" lon="1.823384">
        <ele>2078.4</ele>
        <time>2019-11-30T14:34:53Z</time>
      </trkpt>
      <trkpt lat="42.573317" lon="1.823259">
        <ele>2076.8</ele>
        <time>2019-11-30T14:35:04Z</time>
      </trkpt>
      <trkpt lat="42.573271" lon="1.823138">
        <ele>2074.9</ele>
        <time>2019-11-30T14:35:15Z</time>
      </trkpt>
      <trkpt lat="42.573207" lon="1.823033">
        <ele>2074.0</ele>
        <time>2019-11-30T14:35:26Z</time>
      </trkpt>
      <trkpt lat="42.573132" lon="1.822928">
        <ele>2072.3</ele>
        <time>2019-11-30T14:35:37Z</time>
      </trkpt>
      <trkpt lat="42.573075" lon="1.822799">
        <ele>2070.5</ele>
        <time>2019-11-30T14:35:49Z</time>
      </trkpt>
      <trkpt lat="42.573027" lon="1.822677">
        <ele>2068.8</ele>
        <time>2019-11-30T14:36:00Z</time>
      </trkpt>
      <trkpt lat="42.572971" lon="1.822569">
        <ele>2067.9</ele>
        <time>2019-11-30T14:36:11Z</time>
      </trkpt>
      <trkpt lat="42.572921" lon="1.822457">
        <ele>2065.9</ele>
        <time>2019-11-30T14:36:21Z</time>
      </trkpt>
      <trkpt lat="42.572854" lon="1.822351">
        <ele>2065.1</ele>
        <time>2019-11-30T14:36:32Z</time>
      </trkpt>
      <trkpt lat="42.572784" lon="1.822232">
        <ele>2063.4</ele>
        <time>2019-11-30T14:36:44Z</time>
      </trkpt>
      <trkpt lat="42.572715" lon="1.822113">
        <ele>2061.5</ele>
        <time>2019-11-30T14:36:56Z</time>
      </trkpt>
      <trkpt lat="42.572651" lon="1.822006">
        <ele>2059.7</ele>
        <time>2019-11-30T14:37:06Z</time>
      </trkpt>
      <trkpt lat="42.572608" lon="1.821883">
        <ele>2057.8</ele>
        <time>2019-11-30T14:37:17Z</time>
      </trkpt>
      <trkpt lat="42.572540" lon="1.821775">
        <ele>2057.0</ele>
        <time>2019-11-30T14:37:27Z</time>
      </trkpt>
      <trkpt lat="42.572486" lon="1.821652">
        <ele>2056.0</ele>
        <time>2019-11-30T14:37:37Z</time>
      </trkpt>
      <trkpt lat="42.572425" lon="1.821550">
        <ele>2054.2</ele>
        <time>2019-11-30T14:37:47Z</time>
      </trkpt>
      <trkpt lat="42.572359" lon="1.821432">
        <ele>2052.6</ele>
        <time>2019-11-30T14:37:57Z</time>
      </trkpt>
      <trkpt lat="42.572312" lon="1.821296">
        <ele>2050.9</ele>
        <time>2019-11-30T14:38:06Z</time>
      </trkpt>
      <trkpt lat="42.572260" lon="1.821170">
        <ele>2049.1</ele>
        <time>2019-11-30T14:38:16Z</time>
      </trkpt>
      <trkpt lat="42.572230" lon="1.821035">
        <ele>2048.2</ele>
        <time>2019-11-30T14:38:28Z</time>
      </trkpt>
      <trkpt lat="42.572182" lon="1.820905">
        <ele>2046.2</ele>
        <time>2019-11-30T14:38:38Z</time>
      </trkpt>
      <trkpt lat="42.572119" lon="1.820779">
        <ele>2044.7</ele>
        <time>2019-11-30T14:38:49Z</time>
      </trkpt>
      <trkpt lat="42.572053" lon="1.820654">
        <ele>2043.1</ele>
        <time>2019-11-30T14:38:58Z</time>
      </trkpt>
      <trkpt lat="42.572004" lon="1.820520">
        <ele>2042.3</ele>
        <time>2019-11-30T14:39:07Z</time>
      </trkpt>
      <trkpt lat="42.571957" lon="1.820401">
        <ele>2040.7</ele>
        <time>2019-11-30T14:39:15Z</time>
      </trkpt>
      <trkpt lat="42.571909" lon="1.820270">
        <ele>2038.7</ele>
        <time>2019-11-30T14:39:24Z</time>
      </trkpt>
      <trkpt lat="42.571873" lon="1.820132">
        <ele>2036.9</ele>
        <time>2019-11-30T14:39:33Z</time>
      </trkpt>
      <trkpt lat="42.571830" lon="1.819994">
        <ele>2035.4</ele>
        <time>2019-11-30T14:39:43Z</time>
      </trkpt>
      <trkpt lat="42.571785" lon="1.819866">
        <ele>2033.8</ele>
        <time>2019-11-30T14:39:51Z</time>
      </trkpt>
      <trkpt lat="42.571735" lon="1.819737">
        <ele>2032.2</ele>
        <time>2019-11-30T14:40:00Z</time>
      </trkpt>
      <trkpt lat="42.571687" lon="1.819616">
        <ele>2031.5</ele>
        <time>2019-11-30T14:40:08Z</time>
      </trkpt>
      <trkpt lat="42.571636" lon="1.819479">
        <ele>2029.6</ele>
        <time>2019-11-30T14:40:17Z</time>
      </trkpt>
      <trkpt lat="42.571569" lon="1.819360">
        <ele>2028.7</ele>
        <time>2019-11-30T14:40:26Z</time>
      </trkpt>
      <trkpt lat="42.571498" lon="1.819244">
        <ele>2027.0</ele>
        <time>2019-11-30T14:40:35Z</time>
      </trkpt>
      <trkpt lat="42.571434" lon="1.819124">
        <ele>2026.2</ele>
        <time>2019-11-30T14:40:43Z</time>
      </trkpt>
      <trkpt lat="42.571388" lon="1.818981">
        <ele>2024.3</ele>
        <time>2019-11-30T14:40:52Z</time>
      </trkpt>
      <trkpt lat="42.571348" lon="1.818854">
        <ele>2022.7</ele>
        <time>2019-11-30T14:41:01Z</time>
      </trkpt>
      <trkpt lat="42.571309" lon="1.818732">
        <ele>2020.9</ele>
        <time>2019-11-30T14:41:09Z</time>
      </trkpt>
      <trkpt lat="42.571266" lon="1.818594">
        <ele>2020.0</ele>
        <time>2019-11-30T14:41:18Z</time>
      </trkpt>
      <trkpt lat="42.571216" lon="1.818447">
        <ele>2018.2</ele>
        <time>2019-11-30T14:41:27Z</time>
      </trkpt>
      <trkpt lat="42.571160" lon="1.818299">
        <ele>2017.3</ele>
        <time>2019-11-30T14:41:37Z</time>
      </trkpt>
      <trkpt lat="42.571094" lon="1.818181">
        <ele>2015.6</ele>
        <time>2019-11-30T14:41:46Z</time>
      </trkpt>
      <trkpt lat="42.571036" lon="1.818062">
        <ele>2014.7</ele>
        <time>2019-11-30T14:41:55Z</time>
      </trkpt>
      <trkpt lat="42.570974" lon="1.817945">
        <ele>2012.9</ele>
        <time>2019-11-30T14:42:03Z</time>
      </trkpt>
      <trkpt lat="42.570902" lon="1.817815">
        <ele>2011.9</ele>
        <time>2019-11-30T14:42:13Z</time>
      </trkpt>
      <trkpt lat="42.570835" lon="1.817679">
        <ele>2010.2</ele>
        <time>2019-11-30T14:42:23Z</time>
      </trkpt>
      <trkpt lat="42.570771" lon="1.817567">
        <ele>2008.7</ele>
        <time>2019-11-30T14:42:32Z</time>
      </trkpt>
      <trkpt lat="42.570700" lon="1.817455">
        <ele>2007.0</ele>
        <time>2019-11-30T14:42:41Z</time>
      </trkpt>
      <trkpt lat="42.570635" lon="1.817329">
        <ele>2006.1</ele>
        <time>2019-11-30T14:42:50Z</time>
      </trkpt>
      <trkpt lat="42.570577" lon="1.817224">
        <ele>2005.2</ele>
        <time>2019-11-30T14:42:58Z</time>
      </trkpt>
      <trkpt lat="42.570524" lon="1.817110">
        <ele>2003.5</ele>
        <time>2019-11-30T14:43:06Z</time>
      </trkpt>
      <trkpt lat="42.570464" lon="1.816994">
        <ele>2001.8</ele>
        <time>2019-11-30T14:43:14Z</time>
      </trkpt>
      <trkpt lat="42.570398" lon="1.816893">
        <ele>2000.9</ele>
        <time>2019-11-30T14:43:23Z</time>
      </trkpt>
      <trkpt lat="42.570323" lon="1.816821">
        <ele>1999.9</ele>
        <time>2019-11-30T14:43:31Z</time>
      </trkpt>
      <trkpt lat="42.570244" lon="1.816740">
        <ele>1998.3</ele>
        <time>2019-11-30T14:43:39Z</time>
      </trkpt>
      <trkpt lat="42.570168" lon="1.816666">
        <ele>1997.4</ele>
        <time>2019-11-30T14:43:46Z</time>
      </trkpt>
      <trkpt lat="42.570098" lon="1.816581">
        <ele>1996.6</ele>
        <time>2019-11-30T14:43:55Z</time>
      </trkpt>
      <trkpt lat="42.570027" lon="1.816482">
        <ele>1994.6</ele>
        <time>2019-11-30T14:44:03Z</time>
      </trkpt>
      <trkpt lat="42.569960" lon="1.816379">
        <ele>1993.5</ele>
        <time>2019-11-30T14:44:11Z</time>
      </trkpt>
      <trkpt lat="42.569893" lon="1.816278">
        <ele>1991.8</ele>
        <time>2019-11-30T14:44:19Z</time>
      </trkpt>
      <trkpt lat="42.569823" lon="1.816175">
        <ele>1991.2</ele>
        <time>2019-11-30T14:44:27Z</time>
      </trkpt>
      <trkpt lat="42.569759" lon="1.816072">
        <ele>1989.1</ele>
        <time>2019-11-30T14:44:35Z</time>
      </trkpt>
      <trkpt lat="42.569690" lon="1.815970">
        <ele>1988.2</ele>
        <time>2019-11-30T14:44:43Z</time>
      </trkpt>
      <trkpt lat="42.569615" lon="1.815866">
        <ele>1986.4</ele>
        <time>2019-11-30T14:44:51Z</time>
      </trkpt>
      <trkpt lat="42.569545" lon="1.815769">
        <ele>1984.6</ele>
        <time>2019-11-30T14:44:59Z</time>
      </trkpt>
      <trkpt lat="42.569474" lon="1.815678">
        <ele>1983.4</ele>
        <time>2019-11-30T14:45:07Z</time>
      </trkpt>
      <trkpt lat="42.569397" lon="1.815602">
        <ele>1982.5</ele>
        <time>2019-11-30T14:45:15Z</time>
      </trkpt>
      <trkpt lat="42.569314" lon="1.815520">
        <ele>1980.8</ele>
        <time>2019-11-30T14:45:23Z</time>
      </trkpt>
      <trkpt lat="42.569231" lon="1.815434">
        <ele>1980.0</ele>
        <time>2019-11-30T14:45:31Z</time>
      </trkpt>
      <trkpt lat="42.569165" lon="1.815337">
        <ele>1978.4</ele>
        <time>2019-11-30T14:45:39Z</time>
      </trkpt>
      <trkpt lat="42.569100" lon="1.815237">
        <ele>1977.6</ele>
        <time>2019-11-30T14:45:47Z</time>
      </trkpt>
      <trkpt lat="42.569044" lon="1.815130">
        <ele>1976.1</ele>
        <time>2019-11-30T14:45:55Z</time>
      </trkpt>
      <trkpt lat="42.568990" lon="1.815023">
        <ele>1975.2</ele>
        <time>2019-11-30T14:46:02Z</time>
      </trkpt>
      <trkpt lat="42.568921" lon="1.814957">
        <ele>1974.3</ele>
        <time>2019-11-30T14:46:09Z</time>
      </trkpt>
      <trkpt lat="42.568823" lon="1.814945">
        <ele>1971.5</ele>
        <time>2019-11-30T14:46:17Z</time>
      </trkpt>
      <trkpt lat="42.568729" lon="1.814951">
        <ele>1969.7</ele>
        <time>2019-11-30T14:46:25Z</time>
      </trkpt>
      <trkpt lat="42.568631" lon="1.814967">
        <ele>1968.7</ele>
        <time>2019-11-30T14:46:33Z</time>
      </trkpt>
      <trkpt lat="42.568529" lon="1.814980">
        <ele>1967.1</ele>
        <time>2019-11-30T14:46:42Z</time>
      </trkpt>
      <trkpt lat="42.568426" lon="1.814986">
        <ele>1966.3</ele>
        <time>2019-11-30T14:46:52Z</time>
      </trkpt>
      <trkpt lat="42.568326" lon="1.814996">
        <ele>1965.5</ele>
        <time>2019-11-30T14:47:02Z</time>
      </trkpt>
      <trkpt lat="42.568231" lon="1.814993">
        <ele>1964.7</ele>
        <time>2019-11-30T14:47:10Z</time>
      </trkpt>
      <trkpt lat="42.568138" lon="1.814993">
        <ele>1963.7</ele>
        <time>2019-11-30T14:47:17Z</time>
      </trkpt>
      <trkpt lat="42.568036" lon="1.814996">
        <ele>1962.8</ele>
        <time>2019-11-30T14:47:25Z</time>
      </trkpt>
      <trkpt lat="42.567930" lon="1.815009">
        <ele>1962.0</ele>
        <time>2019-11-30T14:47:34Z</time>
      </trkpt>
      <trkpt lat="42.567836" lon="1.815017">
        <ele>1961.2</ele>
        <time>2019-11-30T14:47:42Z</time>
      </trkpt>
      <trkpt lat="42.567733" lon="1.815030">
        <ele>1960.4</ele>
        <time>2019-11-30T14:47:50Z</time>
      </trkpt>
      <trkpt lat="42.567634" lon="1.815026">
        <ele>1960.4</ele>
        <time>2019-11-30T14:47:58Z</time>
      </trkpt>
      <trkpt lat="42.567543" lon="1.815047">
        <ele>1958.8</ele>
        <time>2019-11-30T14:48:06Z</time>
      </trkpt>
      <trkpt lat="42.567445" lon="1.815075">
        <ele>1958.0</ele>
        <time>2019-11-30T14:48:15Z</time>
      </trkpt>
      <trkpt lat="42.567353" lon="1.815080">
        <ele>1957.2</ele>
        <time>2019-11-30T14:48:23Z</time>
      </trkpt>
      <trkpt lat="42.567257" lon="1.815081">
        <ele>1956.2</ele>
        <time>2019-11-30T14:48:31Z</time>
      </trkpt>
      <trkpt lat="42.567208" lon="1.815131">
        <ele>1955.4</ele>
        <time>2019-11-30T14:48:39Z</time>
      </trkpt>
      <trkpt lat="42.567209" lon="1.815135">
        <ele>1954.7</ele>
        <time>2019-11-30T14:48:54Z</time>
      </trkpt>
      <trkpt lat="42.567123" lon="1.815075">
        <ele>1954.7</ele>
        <time>2019-11-30T14:49:09Z</time>
      </trkpt>
      <trkpt lat="42.567043" lon="1.815013">
        <ele>1954.6</ele>
        <time>2019-11-30T14:49:18Z</time>
      </trkpt>
      <trkpt lat="42.566996" lon="1.814907">
        <ele>1954.6</ele>
        <time>2019-11-30T14:49:26Z</time>
      </trkpt>
      <trkpt lat="42.566966" lon="1.814768">
        <ele>1954.6</ele>
        <time>2019-11-30T14:49:35Z</time>
      </trkpt>
      <trkpt lat="42.566913" lon="1.814657">
        <ele>1954.6</ele>
        <time>2019-11-30T14:49:45Z</time>
      </trkpt>
      <trkpt lat="42.566874" lon="1.814557">
        <ele>1954.5</ele>
        <time>2019-11-30T14:50:01Z</time>
      </trkpt>
      <trkpt lat="42.566805" lon="1.814485">
        <ele>1954.5</ele>
        <time>2019-11-30T14:50:09Z</time>
      </trkpt>
      <trkpt lat="42.566729" lon="1.814411">
        <ele>1954.4</ele>
        <time>2019-11-30T14:50:20Z</time>
      </trkpt>
      <trkpt lat="42.566657" lon="1.814328">
        <ele>1954.4</ele>
        <time>2019-11-30T14:50:29Z</time>
      </trkpt>
      <trkpt lat="42.566581" lon="1.814269">
        <ele>1953.6</ele>
        <time>2019-11-30T14:50:37Z</time>
      </trkpt>
      <trkpt lat="42.566499" lon="1.814212">
        <ele>1952.7</ele>
        <time>2019-11-30T14:50:47Z</time>
      </trkpt>
      <trkpt lat="42.566414" lon="1.814159">
        <ele>1952.7</ele>
        <time>2019-11-30T14:50:57Z</time>
      </trkpt>
      <trkpt lat="42.566333" lon="1.814104">
        <ele>1951.9</ele>
        <time>2019-11-30T14:51:06Z</time>
      </trkpt>
      <trkpt lat="42.566245" lon="1.814064">
        <ele>1952.0</ele>
        <time>2019-11-30T14:51:16Z</time>
      </trkpt>
      <trkpt lat="42.566158" lon="1.814013">
        <ele>1951.9</ele>
        <time>2019-11-30T14:51:26Z</time>
      </trkpt>
      <trkpt lat="42.566075" lon="1.813948">
        <ele>1951.1</ele>
        <time>2019-11-30T14:51:35Z</time>
      </trkpt>
      <trkpt lat="42.566003" lon="1.813875">
        <ele>1950.4</ele>
        <time>2019-11-30T14:51:44Z</time>
      </trkpt>
      <trkpt lat="42.565929" lon="1.813802">
        <ele>1949.6</ele>
        <time>2019-11-30T14:51:55Z</time>
      </trkpt>
      <trkpt lat="42.565843" lon="1.813713">
        <ele>1949.6</ele>
        <time>2019-11-30T14:52:05Z</time>
      </trkpt>
      <trkpt lat="42.565769" lon="1.813639">
        <ele>1948.7</ele>
        <time>2019-11-30T14:52:12Z</time>
      </trkpt>
      <trkpt lat="42.565707" lon="1.813544">
        <ele>1948.7</ele>
        <time>2019-11-30T14:52:20Z</time>
      </trkpt>
      <trkpt lat="42.565659" lon="1.813436">
        <ele>1947.9</ele>
        <time>2019-11-30T14:52:28Z</time>
      </trkpt>
      <trkpt lat="42.565598" lon="1.813324">
        <ele>1947.2</ele>
        <time>2019-11-30T14:52:37Z</time>
      </trkpt>
      <trkpt lat="42.565546" lon="1.813214">
        <ele>1946.4</ele>
        <time>2019-11-30T14:52:45Z</time>
      </trkpt>
      <trkpt lat="42.565487" lon="1.813113">
        <ele>1946.4</ele>
        <time>2019-11-30T14:52:53Z</time>
      </trkpt>
      <trkpt lat="42.565432" lon="1.812997">
        <ele>1945.4</ele>
        <time>2019-11-30T14:53:02Z</time>
      </trkpt>
      <trkpt lat="42.565376" lon="1.812897">
        <ele>1945.5</ele>
        <time>2019-11-30T14:53:09Z</time>
      </trkpt>
      <trkpt lat="42.565306" lon="1.812792">
        <ele>1945.5</ele>
        <time>2019-11-30T14:53:17Z</time>
      </trkpt>
      <trkpt lat="42.565239" lon="1.812699">
        <ele>1944.7</ele>
        <time>2019-11-30T14:53:24Z</time>
      </trkpt>
      <trkpt lat="42.565174" lon="1.812613">
        <ele>1943.8</ele>
        <time>2019-11-30T14:53:32Z</time>
      </trkpt>
      <trkpt lat="42.565088" lon="1.812555">
        <ele>1942.9</ele>
        <time>2019-11-30T14:53:40Z</time>
      </trkpt>
      <trkpt lat="42.565011" lon="1.812475">
        <ele>1942.9</ele>
        <time>2019-11-30T14:53:47Z</time>
      </trkpt>
      <trkpt lat="42.564946" lon="1.812393">
        <ele>1942.2</ele>
        <time>2019-11-30T14:53:53Z</time>
      </trkpt>
      <trkpt lat="42.564884" lon="1.812294">
        <ele>1941.4</ele>
        <time>2019-11-30T14:54:00Z</time>
      </trkpt>
      <trkpt lat="42.564834" lon="1.812184">
        <ele>1941.4</ele>
        <time>2019-11-30T14:54:07Z</time>
      </trkpt>
      <trkpt lat="42.564779" lon="1.812086">
        <ele>1940.6</ele>
        <time>2019-11-30T14:54:14Z</time>
      </trkpt>
      <trkpt lat="42.564737" lon="1.811979">
        <ele>1939.5</ele>
        <time>2019-11-30T14:54:21Z</time>
      </trkpt>
      <trkpt lat="42.564687" lon="1.811883">
        <ele>1938.7</ele>
        <time>2019-11-30T14:54:28Z</time>
      </trkpt>
      <trkpt lat="42.564637" lon="1.811778">
        <ele>1938.7</ele>
        <time>2019-11-30T14:54:35Z</time>
      </trkpt>
      <trkpt lat="42.564580" lon="1.811674">
        <ele>1938.8</ele>
        <time>2019-11-30T14:54:43Z</time>
      </trkpt>
      <trkpt lat="42.564521" lon="1.811562">
        <ele>1938.0</ele>
        <time>2019-11-30T14:54:51Z</time>
      </trkpt>
      <trkpt lat="42.564482" lon="1.811450">
        <ele>1937.1</ele>
        <time>2019-11-30T14:54:58Z</time>
      </trkpt>
      <trkpt lat="42.564431" lon="1.811343">
        <ele>1937.1</ele>
        <time>2019-11-30T14:55:05Z</time>
      </trkpt>
      <trkpt lat="42.564384" lon="1.811230">
        <ele>1936.2</ele>
        <time>2019-11-30T14:55:13Z</time>
      </trkpt>
      <trkpt lat="42.564333" lon="1.811108">
        <ele>1936.2</ele>
        <time>2019-11-30T14:55:21Z</time>
      </trkpt>
      <trkpt lat="42.564278" lon="1.811011">
        <ele>1935.4</ele>
        <time>2019-11-30T14:55:28Z</time>
      </trkpt>
      <trkpt lat="42.564196" lon="1.810949">
        <ele>1934.5</ele>
        <time>2019-11-30T14:55:36Z</time>
      </trkpt>
      <trkpt lat="42.564105" lon="1.810957">
        <ele>1933.7</ele>
        <time>2019-11-30T14:55:43Z</time>
      </trkpt>
      <trkpt lat="42.564014" lon="1.811003">
        <ele>1931.9</ele>
        <time>2019-11-30T14:55:50Z</time>
      </trkpt>
      <trkpt lat="42.563926" lon="1.811034">
        <ele>1931.0</ele>
        <time>2019-11-30T14:55:57Z</time>
      </trkpt>
      <trkpt lat="42.563836" lon="1.811068">
        <ele>1930.2</ele>
        <time>2019-11-30T14:56:04Z</time>
      </trkpt>
      <trkpt lat="42.563740" lon="1.811081">
        <ele>1928.3</ele>
        <time>2019-11-30T14:56:12Z</time>
      </trkpt>
      <trkpt lat="42.563632" lon="1.811082">
        <ele>1927.5</ele>
        <time>2019-11-30T14:56:20Z</time>
      </trkpt>
      <trkpt lat="42.563536" lon="1.811098">
        <ele>1926.7</ele>
        <time>2019-11-30T14:56:27Z</time>
      </trkpt>
      <trkpt lat="42.563438" lon="1.811085">
        <ele>1926.8</ele>
        <time>2019-11-30T14:56:34Z</time>
      </trkpt>
      <trkpt lat="42.563341" lon="1.811068">
        <ele>1926.8</ele>
        <time>2019-11-30T14:56:41Z</time>
      </trkpt>
      <trkpt lat="42.563247" lon="1.811073">
        <ele>1926.0</ele>
        <time>2019-11-30T14:56:48Z</time>
      </trkpt>
      <trkpt lat="42.563153" lon="1.811084">
        <ele>1926.0</ele>
        <time>2019-11-30T14:56:55Z</time>
      </trkpt>
      <trkpt lat="42.563058" lon="1.811102">
        <ele>1925.2</ele>
        <time>2019-11-30T14:57:03Z</time>
      </trkpt>
      <trkpt lat="42.562954" lon="1.811113">
        <ele>1925.1</ele>
        <time>2019-11-30T14:57:12Z</time>
      </trkpt>
      <trkpt lat="42.562857" lon="1.811103">
        <ele>1925.1</ele>
        <time>2019-11-30T14:57:20Z</time>
      </trkpt>
      <trkpt lat="42.562764" lon="1.811078">
        <ele>1925.2</ele>
        <time>2019-11-30T14:57:28Z</time>
      </trkpt>
      <trkpt lat="42.562668" lon="1.811040">
        <ele>1925.2</ele>
        <time>2019-11-30T14:57:37Z</time>
      </trkpt>
      <trkpt lat="42.562579" lon="1.810996">
        <ele>1925.2</ele>
        <time>2019-11-30T14:57:45Z</time>
      </trkpt>
      <trkpt lat="42.562486" lon="1.810956">
        <ele>1925.2</ele>
        <time>2019-11-30T14:57:55Z</time>
      </trkpt>
      <trkpt lat="42.562390" lon="1.810927">
        <ele>1925.1</ele>
        <time>2019-11-30T14:58:03Z</time>
      </trkpt>
      <trkpt lat="42.562295" lon="1.810904">
        <ele>1925.1</ele>
        <time>2019-11-30T14:58:11Z</time>
      </trkpt>
      <trkpt lat="42.562205" lon="1.810885">
        <ele>1925.1</ele>
        <time>2019-11-30T14:58:18Z</time>
      </trkpt>
      <trkpt lat="42.562108" lon="1.810854">
        <ele>1924.3</ele>
        <time>2019-11-30T14:58:26Z</time>
      </trkpt>
      <trkpt lat="42.562038" lon="1.810783">
        <ele>1923.4</ele>
        <time>2019-11-30T14:58:34Z</time>
      </trkpt>
      <trkpt lat="42.561958" lon="1.810713">
        <ele>1922.6</ele>
        <time>2019-11-30T14:58:42Z</time>
      </trkpt>
      <trkpt lat="42.561869" lon="1.810657">
        <ele>1922.7</ele>
        <time>2019-11-30T14:58:50Z</time>
      </trkpt>
      <trkpt lat="42.561789" lon="1.810605">
        <ele>1921.9</ele>
        <time>2019-11-30T14:58:58Z</time>
      </trkpt>
      <trkpt lat="42.561705" lon="1.810555">
        <ele>1921.9</ele>
        <time>2019-11-30T14:59:06Z</time>
      </trkpt>
      <trkpt lat="42.561618" lon="1.810483">
        <ele>1921.1</ele>
        <time>2019-11-30T14:59:15Z</time>
      </trkpt>
      <trkpt lat="42.561524" lon="1.810443">
        <ele>1921.2</ele>
        <time>2019-11-30T14:59:24Z</time>
      </trkpt>
      <trkpt lat="42.561433" lon="1.810439">
        <ele>1921.2</ele>
        <time>2019-11-30T14:59:33Z</time>
      </trkpt>
      <trkpt lat="42.561357" lon="1.810377">
        <ele>1921.2</ele>
        <time>2019-11-30T14:59:44Z</time>
      </trkpt>
      <trkpt lat="42.561265" lon="1.810350">
        <ele>1921.2</ele>
        <time>2019-11-30T14:59:52Z</time>
      </trkpt>
      <trkpt lat="42.561187" lon="1.810287">
        <ele>1921.2</ele>
        <time>2019-11-30T15:00:00Z</time>
      </trkpt>
      <trkpt lat="42.561118" lon="1.810218">
        <ele>1921.2</ele>
        <time>2019-11-30T15:00:11Z</time>
      </trkpt>
      <trkpt lat="42.561035" lon="1.810156">
        <ele>1921.2</ele>
        <time>2019-11-30T15:00:19Z</time>
      </trkpt>
      <trkpt lat="42.560947" lon="1.810100">
        <ele>1921.2</ele>
        <time>2019-11-30T15:00:27Z</time>
      </trkpt>
      <trkpt lat="42.560859" lon="1.810132">
        <ele>1920.4</ele>
        <time>2019-11-30T15:00:36Z</time>
      </trkpt>
      <trkpt lat="42.560762" lon="1.810153">
        <ele>1920.4</ele>
        <time>2019-11-30T15:00:46Z</time>
      </trkpt>
      <trkpt lat="42.560670" lon="1.810185">
        <ele>1920.4</ele>
        <time>2019-11-30T15:00:55Z</time>
      </trkpt>
      <trkpt lat="42.560577" lon="1.810216">
        <ele>1920.4</ele>
        <time>2019-11-30T15:01:05Z</time>
      </trkpt>
      <trkpt lat="42.560481" lon="1.810261">
        <ele>1920.4</ele>
        <time>2019-11-30T15:01:17Z</time>
      </trkpt>
      <trkpt lat="42.560380" lon="1.810291">
        <ele>1920.4</ele>
        <time>2019-11-30T15:01:27Z</time>
      </trkpt>
      <trkpt lat="42.560277" lon="1.810293">
        <ele>1920.4</ele>
        <time>2019-11-30T15:01:36Z</time>
      </trkpt>
      <trkpt lat="42.560184" lon="1.810304">
        <ele>1919.6</ele>
        <time>2019-11-30T15:01:49Z</time>
      </trkpt>
      <trkpt lat="42.560095" lon="1.810282">
        <ele>1917.8</ele>
        <time>2019-11-30T15:01:58Z</time>
      </trkpt>
      <trkpt lat="42.560013" lon="1.810366">
        <ele>1917.8</ele>
        <time>2019-11-30T15:02:07Z</time>
      </trkpt>
      <trkpt lat="42.559995" lon="1.810436">
        <ele>1917.1</ele>
        <time>2019-11-30T15:02:21Z</time>
      </trkpt>
      <trkpt lat="42.559977" lon="1.810396">
        <ele>1916.9</ele>
        <time>2019-11-30T15:04:17Z</time>
      </trkpt>
      <trkpt lat="42.559982" lon="1.810411">
        <ele>1887.9</ele>
        <time>2019-11-30T15:04:48Z</time>
      </trkpt>
    </trkseg>
  </trk>
</gpx>

